<?xml version="1.0" encoding="UTF-8" standalone="no" ?>
<gpx xmlns="http://www.topografix.com/GPX/1/1" xmlns:xsi="http://www.w3.org/2001/XMLSchema-instance" xsi:schemaLocation="http://www.topografix.com/GPX/1/1 http://www.topografix.com/GPX/1/1/gpx.xsd" version="1.1" creator="VisuGPX - https://www.visugpx.com">
  <metadata>
    <name>saint barnabé Combes du Suy et de l'Aygre</name>
    <desc><![CDATA[belle balade pour une reprise après l'été....... belles vues sur Cipières et sur la côte....]]></desc>
  </metadata>
  <trk>
    <name><![CDATA[ST BARNABE COMBES DU SUY ET DE L'AYGRE]]></name>
    <trkseg>
      <trkpt lat="43.76035" lon="7.04203">
        <ele>967.2</ele>
        <time>2017-09-11T07:25:37Z</time>
      </trkpt>
      <trkpt lat="43.76035" lon="7.04203">
        <ele>974.8</ele>
        <time>2017-09-11T07:25:55Z</time>
      </trkpt>
      <trkpt lat="43.76029" lon="7.04193">
        <ele>975.2</ele>
        <time>2017-09-11T07:26:20Z</time>
      </trkpt>
      <trkpt lat="43.76019" lon="7.04189">
        <ele>975.2</ele>
        <time>2017-09-11T07:26:33Z</time>
      </trkpt>
      <trkpt lat="43.76014" lon="7.0419">
        <ele>975.1</ele>
        <time>2017-09-11T07:26:36Z</time>
      </trkpt>
      <trkpt lat="43.7601" lon="7.04194">
        <ele>975.1</ele>
        <time>2017-09-11T07:26:39Z</time>
      </trkpt>
      <trkpt lat="43.76006" lon="7.04203">
        <ele>975.1</ele>
        <time>2017-09-11T07:26:44Z</time>
      </trkpt>
      <trkpt lat="43.75992" lon="7.04204">
        <ele>974.9</ele>
        <time>2017-09-11T07:27:00Z</time>
      </trkpt>
      <trkpt lat="43.75979" lon="7.04202">
        <ele>973.6</ele>
        <time>2017-09-11T07:27:12Z</time>
      </trkpt>
      <trkpt lat="43.75966" lon="7.04197">
        <ele>971.8</ele>
        <time>2017-09-11T07:27:21Z</time>
      </trkpt>
      <trkpt lat="43.75957" lon="7.04184">
        <ele>969.7</ele>
        <time>2017-09-11T07:27:34Z</time>
      </trkpt>
      <trkpt lat="43.75954" lon="7.04176">
        <ele>967.6</ele>
        <time>2017-09-11T07:27:41Z</time>
      </trkpt>
      <trkpt lat="43.7595" lon="7.0417">
        <ele>967.6</ele>
        <time>2017-09-11T07:27:45Z</time>
      </trkpt>
      <trkpt lat="43.75941" lon="7.04163">
        <ele>965.2</ele>
        <time>2017-09-11T07:27:53Z</time>
      </trkpt>
      <trkpt lat="43.75931" lon="7.04152">
        <ele>964.2</ele>
        <time>2017-09-11T07:28:05Z</time>
      </trkpt>
      <trkpt lat="43.75928" lon="7.04145">
        <ele>963.9</ele>
        <time>2017-09-11T07:28:10Z</time>
      </trkpt>
      <trkpt lat="43.75929" lon="7.04138">
        <ele>963.9</ele>
        <time>2017-09-11T07:28:14Z</time>
      </trkpt>
      <trkpt lat="43.75928" lon="7.04128">
        <ele>963.8</ele>
        <time>2017-09-11T07:28:19Z</time>
      </trkpt>
      <trkpt lat="43.75925" lon="7.04123">
        <ele>963.8</ele>
        <time>2017-09-11T07:28:23Z</time>
      </trkpt>
      <trkpt lat="43.75914" lon="7.04111">
        <ele>963.6</ele>
        <time>2017-09-11T07:28:34Z</time>
      </trkpt>
      <trkpt lat="43.75908" lon="7.04101">
        <ele>963.5</ele>
        <time>2017-09-11T07:28:39Z</time>
      </trkpt>
      <trkpt lat="43.75905" lon="7.04096">
        <ele>963.5</ele>
        <time>2017-09-11T07:28:44Z</time>
      </trkpt>
      <trkpt lat="43.75895" lon="7.04082">
        <ele>963.3</ele>
        <time>2017-09-11T07:28:55Z</time>
      </trkpt>
      <trkpt lat="43.75886" lon="7.04078">
        <ele>963.3</ele>
        <time>2017-09-11T07:29:03Z</time>
      </trkpt>
      <trkpt lat="43.75881" lon="7.04077">
        <ele>963.2</ele>
        <time>2017-09-11T07:29:05Z</time>
      </trkpt>
      <trkpt lat="43.75871" lon="7.04069">
        <ele>963.1</ele>
        <time>2017-09-11T07:29:12Z</time>
      </trkpt>
      <trkpt lat="43.75865" lon="7.04061">
        <ele>962.8</ele>
        <time>2017-09-11T07:29:20Z</time>
      </trkpt>
      <trkpt lat="43.75862" lon="7.04054">
        <ele>962.8</ele>
        <time>2017-09-11T07:29:24Z</time>
      </trkpt>
      <trkpt lat="43.75859" lon="7.04042">
        <ele>962.6</ele>
        <time>2017-09-11T07:29:29Z</time>
      </trkpt>
      <trkpt lat="43.75856" lon="7.0403">
        <ele>962</ele>
        <time>2017-09-11T07:29:36Z</time>
      </trkpt>
      <trkpt lat="43.7585" lon="7.0402">
        <ele>961.7</ele>
        <time>2017-09-11T07:29:41Z</time>
      </trkpt>
      <trkpt lat="43.75838" lon="7.04009">
        <ele>961.2</ele>
        <time>2017-09-11T07:29:53Z</time>
      </trkpt>
      <trkpt lat="43.75835" lon="7.04001">
        <ele>960.9</ele>
        <time>2017-09-11T07:29:57Z</time>
      </trkpt>
      <trkpt lat="43.75832" lon="7.03987">
        <ele>960.7</ele>
        <time>2017-09-11T07:30:04Z</time>
      </trkpt>
      <trkpt lat="43.75827" lon="7.0397">
        <ele>960.3</ele>
        <time>2017-09-11T07:30:14Z</time>
      </trkpt>
      <trkpt lat="43.75827" lon="7.03956">
        <ele>959.5</ele>
        <time>2017-09-11T07:30:20Z</time>
      </trkpt>
      <trkpt lat="43.7583" lon="7.03939">
        <ele>958.8</ele>
        <time>2017-09-11T07:30:28Z</time>
      </trkpt>
      <trkpt lat="43.75832" lon="7.03931">
        <ele>958.1</ele>
        <time>2017-09-11T07:30:33Z</time>
      </trkpt>
      <trkpt lat="43.75831" lon="7.03923">
        <ele>957.7</ele>
        <time>2017-09-11T07:30:37Z</time>
      </trkpt>
      <trkpt lat="43.75828" lon="7.03916">
        <ele>957.7</ele>
        <time>2017-09-11T07:30:40Z</time>
      </trkpt>
      <trkpt lat="43.75825" lon="7.03911">
        <ele>957.4</ele>
        <time>2017-09-11T07:30:43Z</time>
      </trkpt>
      <trkpt lat="43.75823" lon="7.03905">
        <ele>957.4</ele>
        <time>2017-09-11T07:30:45Z</time>
      </trkpt>
      <trkpt lat="43.75821" lon="7.03897">
        <ele>957</ele>
        <time>2017-09-11T07:30:50Z</time>
      </trkpt>
      <trkpt lat="43.7582" lon="7.0388">
        <ele>957</ele>
        <time>2017-09-11T07:30:59Z</time>
      </trkpt>
      <trkpt lat="43.75818" lon="7.03873">
        <ele>957</ele>
        <time>2017-09-11T07:31:02Z</time>
      </trkpt>
      <trkpt lat="43.75811" lon="7.03862">
        <ele>957</ele>
        <time>2017-09-11T07:31:09Z</time>
      </trkpt>
      <trkpt lat="43.75805" lon="7.03852">
        <ele>957</ele>
        <time>2017-09-11T07:31:16Z</time>
      </trkpt>
      <trkpt lat="43.75805" lon="7.03845">
        <ele>957</ele>
        <time>2017-09-11T07:31:19Z</time>
      </trkpt>
      <trkpt lat="43.75807" lon="7.03839">
        <ele>957.1</ele>
        <time>2017-09-11T07:31:22Z</time>
      </trkpt>
      <trkpt lat="43.75813" lon="7.03828">
        <ele>957.3</ele>
        <time>2017-09-11T07:31:34Z</time>
      </trkpt>
      <trkpt lat="43.75826" lon="7.03823">
        <ele>957.5</ele>
        <time>2017-09-11T07:31:43Z</time>
      </trkpt>
      <trkpt lat="43.75835" lon="7.03821">
        <ele>958</ele>
        <time>2017-09-11T07:31:52Z</time>
      </trkpt>
      <trkpt lat="43.75841" lon="7.03817">
        <ele>958.5</ele>
        <time>2017-09-11T07:31:56Z</time>
      </trkpt>
      <trkpt lat="43.75844" lon="7.03811">
        <ele>958.5</ele>
        <time>2017-09-11T07:32:00Z</time>
      </trkpt>
      <trkpt lat="43.7585" lon="7.03801">
        <ele>958.9</ele>
        <time>2017-09-11T07:32:06Z</time>
      </trkpt>
      <trkpt lat="43.75859" lon="7.03793">
        <ele>959</ele>
        <time>2017-09-11T07:32:12Z</time>
      </trkpt>
      <trkpt lat="43.75863" lon="7.03789">
        <ele>959</ele>
        <time>2017-09-11T07:32:15Z</time>
      </trkpt>
      <trkpt lat="43.75864" lon="7.0378">
        <ele>959</ele>
        <time>2017-09-11T07:32:18Z</time>
      </trkpt>
      <trkpt lat="43.75862" lon="7.03767">
        <ele>959</ele>
        <time>2017-09-11T07:32:24Z</time>
      </trkpt>
      <trkpt lat="43.7586" lon="7.03761">
        <ele>959</ele>
        <time>2017-09-11T07:32:28Z</time>
      </trkpt>
      <trkpt lat="43.75858" lon="7.03748">
        <ele>958.7</ele>
        <time>2017-09-11T07:32:34Z</time>
      </trkpt>
      <trkpt lat="43.75856" lon="7.03742">
        <ele>957.9</ele>
        <time>2017-09-11T07:32:38Z</time>
      </trkpt>
      <trkpt lat="43.75853" lon="7.03735">
        <ele>957.1</ele>
        <time>2017-09-11T07:32:43Z</time>
      </trkpt>
      <trkpt lat="43.7585" lon="7.0373">
        <ele>957.1</ele>
        <time>2017-09-11T07:32:45Z</time>
      </trkpt>
      <trkpt lat="43.75837" lon="7.03716">
        <ele>956.2</ele>
        <time>2017-09-11T07:32:54Z</time>
      </trkpt>
      <trkpt lat="43.7583" lon="7.03708">
        <ele>955.6</ele>
        <time>2017-09-11T07:32:59Z</time>
      </trkpt>
      <trkpt lat="43.75821" lon="7.03703">
        <ele>954.9</ele>
        <time>2017-09-11T07:33:07Z</time>
      </trkpt>
      <trkpt lat="43.75816" lon="7.03697">
        <ele>953.9</ele>
        <time>2017-09-11T07:33:11Z</time>
      </trkpt>
      <trkpt lat="43.75815" lon="7.0369">
        <ele>953.7</ele>
        <time>2017-09-11T07:33:16Z</time>
      </trkpt>
      <trkpt lat="43.7581" lon="7.03673">
        <ele>953.2</ele>
        <time>2017-09-11T07:33:26Z</time>
      </trkpt>
      <trkpt lat="43.75808" lon="7.03652">
        <ele>952.8</ele>
        <time>2017-09-11T07:33:34Z</time>
      </trkpt>
      <trkpt lat="43.75809" lon="7.03645">
        <ele>952.6</ele>
        <time>2017-09-11T07:33:39Z</time>
      </trkpt>
      <trkpt lat="43.75811" lon="7.03625">
        <ele>952</ele>
        <time>2017-09-11T07:33:49Z</time>
      </trkpt>
      <trkpt lat="43.75812" lon="7.03612">
        <ele>951.6</ele>
        <time>2017-09-11T07:33:55Z</time>
      </trkpt>
      <trkpt lat="43.75815" lon="7.036">
        <ele>950.7</ele>
        <time>2017-09-11T07:34:03Z</time>
      </trkpt>
      <trkpt lat="43.75818" lon="7.03593">
        <ele>950.1</ele>
        <time>2017-09-11T07:34:06Z</time>
      </trkpt>
      <trkpt lat="43.75822" lon="7.0358">
        <ele>949.2</ele>
        <time>2017-09-11T07:34:13Z</time>
      </trkpt>
      <trkpt lat="43.75825" lon="7.03568">
        <ele>948.4</ele>
        <time>2017-09-11T07:34:20Z</time>
      </trkpt>
      <trkpt lat="43.7583" lon="7.03556">
        <ele>947.8</ele>
        <time>2017-09-11T07:34:26Z</time>
      </trkpt>
      <trkpt lat="43.75835" lon="7.0354">
        <ele>947.5</ele>
        <time>2017-09-11T07:34:35Z</time>
      </trkpt>
      <trkpt lat="43.75836" lon="7.03534">
        <ele>947.2</ele>
        <time>2017-09-11T07:34:38Z</time>
      </trkpt>
      <trkpt lat="43.75835" lon="7.03526">
        <ele>947.2</ele>
        <time>2017-09-11T07:34:40Z</time>
      </trkpt>
      <trkpt lat="43.75828" lon="7.03509">
        <ele>946.5</ele>
        <time>2017-09-11T07:34:48Z</time>
      </trkpt>
      <trkpt lat="43.75823" lon="7.03498">
        <ele>945.9</ele>
        <time>2017-09-11T07:34:54Z</time>
      </trkpt>
      <trkpt lat="43.7581" lon="7.03487">
        <ele>944.9</ele>
        <time>2017-09-11T07:35:04Z</time>
      </trkpt>
      <trkpt lat="43.758" lon="7.03481">
        <ele>944.2</ele>
        <time>2017-09-11T07:35:11Z</time>
      </trkpt>
      <trkpt lat="43.75789" lon="7.0347">
        <ele>944</ele>
        <time>2017-09-11T07:35:21Z</time>
      </trkpt>
      <trkpt lat="43.75785" lon="7.03465">
        <ele>943.9</ele>
        <time>2017-09-11T07:35:24Z</time>
      </trkpt>
      <trkpt lat="43.75775" lon="7.0345">
        <ele>943.9</ele>
        <time>2017-09-11T07:35:35Z</time>
      </trkpt>
      <trkpt lat="43.75766" lon="7.03435">
        <ele>943.8</ele>
        <time>2017-09-11T07:35:45Z</time>
      </trkpt>
      <trkpt lat="43.75762" lon="7.0343">
        <ele>943.8</ele>
        <time>2017-09-11T07:35:49Z</time>
      </trkpt>
      <trkpt lat="43.75759" lon="7.03421">
        <ele>943.8</ele>
        <time>2017-09-11T07:35:52Z</time>
      </trkpt>
      <trkpt lat="43.75754" lon="7.0341">
        <ele>943.8</ele>
        <time>2017-09-11T07:35:58Z</time>
      </trkpt>
      <trkpt lat="43.75753" lon="7.03403">
        <ele>943.8</ele>
        <time>2017-09-11T07:36:02Z</time>
      </trkpt>
      <trkpt lat="43.75748" lon="7.03392">
        <ele>943.8</ele>
        <time>2017-09-11T07:36:08Z</time>
      </trkpt>
      <trkpt lat="43.75742" lon="7.0338">
        <ele>943.8</ele>
        <time>2017-09-11T07:36:16Z</time>
      </trkpt>
      <trkpt lat="43.75732" lon="7.03367">
        <ele>943.5</ele>
        <time>2017-09-11T07:36:25Z</time>
      </trkpt>
      <trkpt lat="43.75729" lon="7.03358">
        <ele>943.4</ele>
        <time>2017-09-11T07:36:30Z</time>
      </trkpt>
      <trkpt lat="43.7573" lon="7.03349">
        <ele>943.4</ele>
        <time>2017-09-11T07:36:34Z</time>
      </trkpt>
      <trkpt lat="43.75729" lon="7.03339">
        <ele>943.4</ele>
        <time>2017-09-11T07:36:40Z</time>
      </trkpt>
      <trkpt lat="43.75723" lon="7.03325">
        <ele>943.4</ele>
        <time>2017-09-11T07:36:47Z</time>
      </trkpt>
      <trkpt lat="43.75716" lon="7.03316">
        <ele>943.5</ele>
        <time>2017-09-11T07:36:54Z</time>
      </trkpt>
      <trkpt lat="43.75704" lon="7.03304">
        <ele>943.6</ele>
        <time>2017-09-11T07:37:01Z</time>
      </trkpt>
      <trkpt lat="43.75699" lon="7.03293">
        <ele>943.6</ele>
        <time>2017-09-11T07:37:10Z</time>
      </trkpt>
      <trkpt lat="43.75694" lon="7.03275">
        <ele>943.8</ele>
        <time>2017-09-11T07:37:19Z</time>
      </trkpt>
      <trkpt lat="43.7569" lon="7.03261">
        <ele>944</ele>
        <time>2017-09-11T07:37:27Z</time>
      </trkpt>
      <trkpt lat="43.75679" lon="7.03247">
        <ele>944</ele>
        <time>2017-09-11T07:37:36Z</time>
      </trkpt>
      <trkpt lat="43.75676" lon="7.03242">
        <ele>944</ele>
        <time>2017-09-11T07:37:40Z</time>
      </trkpt>
      <trkpt lat="43.7567" lon="7.03229">
        <ele>944.3</ele>
        <time>2017-09-11T07:37:48Z</time>
      </trkpt>
      <trkpt lat="43.75665" lon="7.03219">
        <ele>945</ele>
        <time>2017-09-11T07:37:55Z</time>
      </trkpt>
      <trkpt lat="43.75656" lon="7.0321">
        <ele>945.5</ele>
        <time>2017-09-11T07:38:02Z</time>
      </trkpt>
      <trkpt lat="43.75652" lon="7.03192">
        <ele>946.2</ele>
        <time>2017-09-11T07:38:13Z</time>
      </trkpt>
      <trkpt lat="43.75649" lon="7.03171">
        <ele>946.8</ele>
        <time>2017-09-11T07:38:24Z</time>
      </trkpt>
      <trkpt lat="43.75646" lon="7.03157">
        <ele>947.2</ele>
        <time>2017-09-11T07:38:32Z</time>
      </trkpt>
      <trkpt lat="43.75644" lon="7.03144">
        <ele>947.7</ele>
        <time>2017-09-11T07:38:37Z</time>
      </trkpt>
      <trkpt lat="43.75641" lon="7.03133">
        <ele>947.8</ele>
        <time>2017-09-11T07:38:43Z</time>
      </trkpt>
      <trkpt lat="43.75641" lon="7.03112">
        <ele>948.2</ele>
        <time>2017-09-11T07:38:56Z</time>
      </trkpt>
      <trkpt lat="43.75643" lon="7.031">
        <ele>948.2</ele>
        <time>2017-09-11T07:39:02Z</time>
      </trkpt>
      <trkpt lat="43.75642" lon="7.03081">
        <ele>948.2</ele>
        <time>2017-09-11T07:39:09Z</time>
      </trkpt>
      <trkpt lat="43.75642" lon="7.03061">
        <ele>948.2</ele>
        <time>2017-09-11T07:39:21Z</time>
      </trkpt>
      <trkpt lat="43.75635" lon="7.03043">
        <ele>948.2</ele>
        <time>2017-09-11T07:39:28Z</time>
      </trkpt>
      <trkpt lat="43.75625" lon="7.03029">
        <ele>947.7</ele>
        <time>2017-09-11T07:39:39Z</time>
      </trkpt>
      <trkpt lat="43.7562" lon="7.03018">
        <ele>947.5</ele>
        <time>2017-09-11T07:39:44Z</time>
      </trkpt>
      <trkpt lat="43.75615" lon="7.03006">
        <ele>947</ele>
        <time>2017-09-11T07:39:52Z</time>
      </trkpt>
      <trkpt lat="43.75608" lon="7.02996">
        <ele>946.8</ele>
        <time>2017-09-11T07:39:58Z</time>
      </trkpt>
      <trkpt lat="43.75601" lon="7.02988">
        <ele>946.6</ele>
        <time>2017-09-11T07:40:04Z</time>
      </trkpt>
      <trkpt lat="43.75597" lon="7.02983">
        <ele>946.5</ele>
        <time>2017-09-11T07:40:07Z</time>
      </trkpt>
      <trkpt lat="43.7559" lon="7.02971">
        <ele>946.2</ele>
        <time>2017-09-11T07:40:19Z</time>
      </trkpt>
      <trkpt lat="43.75594" lon="7.02965">
        <ele>946.2</ele>
        <time>2017-09-11T07:40:22Z</time>
      </trkpt>
      <trkpt lat="43.756" lon="7.02956">
        <ele>945.9</ele>
        <time>2017-09-11T07:40:30Z</time>
      </trkpt>
      <trkpt lat="43.75605" lon="7.02949">
        <ele>945.6</ele>
        <time>2017-09-11T07:40:36Z</time>
      </trkpt>
      <trkpt lat="43.75612" lon="7.02945">
        <ele>945.6</ele>
        <time>2017-09-11T07:40:39Z</time>
      </trkpt>
      <trkpt lat="43.75618" lon="7.02944">
        <ele>945.5</ele>
        <time>2017-09-11T07:40:43Z</time>
      </trkpt>
      <trkpt lat="43.75631" lon="7.02938">
        <ele>945.4</ele>
        <time>2017-09-11T07:40:53Z</time>
      </trkpt>
      <trkpt lat="43.75638" lon="7.0293">
        <ele>945.2</ele>
        <time>2017-09-11T07:40:58Z</time>
      </trkpt>
      <trkpt lat="43.75641" lon="7.02924">
        <ele>945.2</ele>
        <time>2017-09-11T07:41:02Z</time>
      </trkpt>
      <trkpt lat="43.75646" lon="7.02919">
        <ele>945</ele>
        <time>2017-09-11T07:41:07Z</time>
      </trkpt>
      <trkpt lat="43.75652" lon="7.02916">
        <ele>945</ele>
        <time>2017-09-11T07:41:11Z</time>
      </trkpt>
      <trkpt lat="43.75667" lon="7.02913">
        <ele>944.7</ele>
        <time>2017-09-11T07:41:20Z</time>
      </trkpt>
      <trkpt lat="43.75676" lon="7.02911">
        <ele>944.1</ele>
        <time>2017-09-11T07:41:26Z</time>
      </trkpt>
      <trkpt lat="43.7569" lon="7.02906">
        <ele>943.5</ele>
        <time>2017-09-11T07:41:35Z</time>
      </trkpt>
      <trkpt lat="43.75698" lon="7.02903">
        <ele>942.8</ele>
        <time>2017-09-11T07:41:42Z</time>
      </trkpt>
      <trkpt lat="43.75705" lon="7.029">
        <ele>942.2</ele>
        <time>2017-09-11T07:41:46Z</time>
      </trkpt>
      <trkpt lat="43.75708" lon="7.02895">
        <ele>942.2</ele>
        <time>2017-09-11T07:41:49Z</time>
      </trkpt>
      <trkpt lat="43.7571" lon="7.0288">
        <ele>941.2</ele>
        <time>2017-09-11T07:41:58Z</time>
      </trkpt>
      <trkpt lat="43.7571" lon="7.02861">
        <ele>940.3</ele>
        <time>2017-09-11T07:42:05Z</time>
      </trkpt>
      <trkpt lat="43.75713" lon="7.0284">
        <ele>939.2</ele>
        <time>2017-09-11T07:42:16Z</time>
      </trkpt>
      <trkpt lat="43.75715" lon="7.02828">
        <ele>938.8</ele>
        <time>2017-09-11T07:42:24Z</time>
      </trkpt>
      <trkpt lat="43.75718" lon="7.02809">
        <ele>938.1</ele>
        <time>2017-09-11T07:42:34Z</time>
      </trkpt>
      <trkpt lat="43.75719" lon="7.0279">
        <ele>937.9</ele>
        <time>2017-09-11T07:42:43Z</time>
      </trkpt>
      <trkpt lat="43.75718" lon="7.0277">
        <ele>937.8</ele>
        <time>2017-09-11T07:42:52Z</time>
      </trkpt>
      <trkpt lat="43.75716" lon="7.0275">
        <ele>937.8</ele>
        <time>2017-09-11T07:43:03Z</time>
      </trkpt>
      <trkpt lat="43.75724" lon="7.02743">
        <ele>937.9</ele>
        <time>2017-09-11T07:43:12Z</time>
      </trkpt>
      <trkpt lat="43.75737" lon="7.02735">
        <ele>938.3</ele>
        <time>2017-09-11T07:43:24Z</time>
      </trkpt>
      <trkpt lat="43.75741" lon="7.02731">
        <ele>938.5</ele>
        <time>2017-09-11T07:43:27Z</time>
      </trkpt>
      <trkpt lat="43.7575" lon="7.0273">
        <ele>939.2</ele>
        <time>2017-09-11T07:43:36Z</time>
      </trkpt>
      <trkpt lat="43.75758" lon="7.02724">
        <ele>939.7</ele>
        <time>2017-09-11T07:43:40Z</time>
      </trkpt>
      <trkpt lat="43.7576" lon="7.02718">
        <ele>939.9</ele>
        <time>2017-09-11T07:43:44Z</time>
      </trkpt>
      <trkpt lat="43.75761" lon="7.0271">
        <ele>939.9</ele>
        <time>2017-09-11T07:43:46Z</time>
      </trkpt>
      <trkpt lat="43.75759" lon="7.02698">
        <ele>940.6</ele>
        <time>2017-09-11T07:43:52Z</time>
      </trkpt>
      <trkpt lat="43.75752" lon="7.0268">
        <ele>940.9</ele>
        <time>2017-09-11T07:44:02Z</time>
      </trkpt>
      <trkpt lat="43.75752" lon="7.02665">
        <ele>941.1</ele>
        <time>2017-09-11T07:44:11Z</time>
      </trkpt>
      <trkpt lat="43.75744" lon="7.02646">
        <ele>941.2</ele>
        <time>2017-09-11T07:44:22Z</time>
      </trkpt>
      <trkpt lat="43.75734" lon="7.02633">
        <ele>941.4</ele>
        <time>2017-09-11T07:44:31Z</time>
      </trkpt>
      <trkpt lat="43.75725" lon="7.0262">
        <ele>941.4</ele>
        <time>2017-09-11T07:44:40Z</time>
      </trkpt>
      <trkpt lat="43.75718" lon="7.02609">
        <ele>941.4</ele>
        <time>2017-09-11T07:44:46Z</time>
      </trkpt>
      <trkpt lat="43.7571" lon="7.026">
        <ele>941.5</ele>
        <time>2017-09-11T07:44:53Z</time>
      </trkpt>
      <trkpt lat="43.75705" lon="7.02595">
        <ele>941.6</ele>
        <time>2017-09-11T07:44:58Z</time>
      </trkpt>
      <trkpt lat="43.75702" lon="7.0259">
        <ele>941.6</ele>
        <time>2017-09-11T07:45:01Z</time>
      </trkpt>
      <trkpt lat="43.75694" lon="7.02583">
        <ele>941.7</ele>
        <time>2017-09-11T07:45:08Z</time>
      </trkpt>
      <trkpt lat="43.75684" lon="7.02578">
        <ele>941.8</ele>
        <time>2017-09-11T07:45:16Z</time>
      </trkpt>
      <trkpt lat="43.75673" lon="7.02565">
        <ele>942</ele>
        <time>2017-09-11T07:45:26Z</time>
      </trkpt>
      <trkpt lat="43.75665" lon="7.02555">
        <ele>942.3</ele>
        <time>2017-09-11T07:45:32Z</time>
      </trkpt>
      <trkpt lat="43.7566" lon="7.0255">
        <ele>942.8</ele>
        <time>2017-09-11T07:45:38Z</time>
      </trkpt>
      <trkpt lat="43.75655" lon="7.02548">
        <ele>942.8</ele>
        <time>2017-09-11T07:45:42Z</time>
      </trkpt>
      <trkpt lat="43.75645" lon="7.02543">
        <ele>943.2</ele>
        <time>2017-09-11T07:45:47Z</time>
      </trkpt>
      <trkpt lat="43.75631" lon="7.02535">
        <ele>943.4</ele>
        <time>2017-09-11T07:45:58Z</time>
      </trkpt>
      <trkpt lat="43.75618" lon="7.02526">
        <ele>943.8</ele>
        <time>2017-09-11T07:46:08Z</time>
      </trkpt>
      <trkpt lat="43.75609" lon="7.02519">
        <ele>944.3</ele>
        <time>2017-09-11T07:46:17Z</time>
      </trkpt>
      <trkpt lat="43.75601" lon="7.02509">
        <ele>944.8</ele>
        <time>2017-09-11T07:46:24Z</time>
      </trkpt>
      <trkpt lat="43.75594" lon="7.02501">
        <ele>945.5</ele>
        <time>2017-09-11T07:46:31Z</time>
      </trkpt>
      <trkpt lat="43.75587" lon="7.02498">
        <ele>945.9</ele>
        <time>2017-09-11T07:46:36Z</time>
      </trkpt>
      <trkpt lat="43.75583" lon="7.02495">
        <ele>945.9</ele>
        <time>2017-09-11T07:46:39Z</time>
      </trkpt>
      <trkpt lat="43.75574" lon="7.02488">
        <ele>946.2</ele>
        <time>2017-09-11T07:46:46Z</time>
      </trkpt>
      <trkpt lat="43.75562" lon="7.02479">
        <ele>946.4</ele>
        <time>2017-09-11T07:46:54Z</time>
      </trkpt>
      <trkpt lat="43.75553" lon="7.02475">
        <ele>946.7</ele>
        <time>2017-09-11T07:47:01Z</time>
      </trkpt>
      <trkpt lat="43.75542" lon="7.02472">
        <ele>947</ele>
        <time>2017-09-11T07:47:12Z</time>
      </trkpt>
      <trkpt lat="43.75537" lon="7.02467">
        <ele>947.3</ele>
        <time>2017-09-11T07:47:16Z</time>
      </trkpt>
      <trkpt lat="43.75525" lon="7.02458">
        <ele>947.5</ele>
        <time>2017-09-11T07:47:26Z</time>
      </trkpt>
      <trkpt lat="43.75514" lon="7.02453">
        <ele>947.8</ele>
        <time>2017-09-11T07:47:35Z</time>
      </trkpt>
      <trkpt lat="43.755" lon="7.02448">
        <ele>948.3</ele>
        <time>2017-09-11T07:47:43Z</time>
      </trkpt>
      <trkpt lat="43.75491" lon="7.02443">
        <ele>948.7</ele>
        <time>2017-09-11T07:47:53Z</time>
      </trkpt>
      <trkpt lat="43.75487" lon="7.02439">
        <ele>948.8</ele>
        <time>2017-09-11T07:47:57Z</time>
      </trkpt>
      <trkpt lat="43.75483" lon="7.02431">
        <ele>949.1</ele>
        <time>2017-09-11T07:48:01Z</time>
      </trkpt>
      <trkpt lat="43.75479" lon="7.02425">
        <ele>949.1</ele>
        <time>2017-09-11T07:48:04Z</time>
      </trkpt>
      <trkpt lat="43.75465" lon="7.0242">
        <ele>949.2</ele>
        <time>2017-09-11T07:48:11Z</time>
      </trkpt>
      <trkpt lat="43.75453" lon="7.02409">
        <ele>949.2</ele>
        <time>2017-09-11T07:48:21Z</time>
      </trkpt>
      <trkpt lat="43.75445" lon="7.02401">
        <ele>949.2</ele>
        <time>2017-09-11T07:48:26Z</time>
      </trkpt>
      <trkpt lat="43.7544" lon="7.02397">
        <ele>949.2</ele>
        <time>2017-09-11T07:48:31Z</time>
      </trkpt>
      <trkpt lat="43.75436" lon="7.02392">
        <ele>949.1</ele>
        <time>2017-09-11T07:48:34Z</time>
      </trkpt>
      <trkpt lat="43.75433" lon="7.02385">
        <ele>949.1</ele>
        <time>2017-09-11T07:48:38Z</time>
      </trkpt>
      <trkpt lat="43.75425" lon="7.0237">
        <ele>948.7</ele>
        <time>2017-09-11T07:48:49Z</time>
      </trkpt>
      <trkpt lat="43.75417" lon="7.02355">
        <ele>948.6</ele>
        <time>2017-09-11T07:48:59Z</time>
      </trkpt>
      <trkpt lat="43.75409" lon="7.02346">
        <ele>948.1</ele>
        <time>2017-09-11T07:49:42Z</time>
      </trkpt>
      <trkpt lat="43.75405" lon="7.02327">
        <ele>948.1</ele>
        <time>2017-09-11T07:49:53Z</time>
      </trkpt>
      <trkpt lat="43.75401" lon="7.02315">
        <ele>948</ele>
        <time>2017-09-11T07:50:00Z</time>
      </trkpt>
      <trkpt lat="43.75393" lon="7.02305">
        <ele>948</ele>
        <time>2017-09-11T07:50:07Z</time>
      </trkpt>
      <trkpt lat="43.75387" lon="7.02294">
        <ele>947.9</ele>
        <time>2017-09-11T07:50:13Z</time>
      </trkpt>
      <trkpt lat="43.75383" lon="7.02288">
        <ele>947.9</ele>
        <time>2017-09-11T07:50:18Z</time>
      </trkpt>
      <trkpt lat="43.7538" lon="7.02276">
        <ele>947.8</ele>
        <time>2017-09-11T07:50:25Z</time>
      </trkpt>
      <trkpt lat="43.75377" lon="7.02256">
        <ele>947.7</ele>
        <time>2017-09-11T07:50:33Z</time>
      </trkpt>
      <trkpt lat="43.75373" lon="7.02238">
        <ele>947.5</ele>
        <time>2017-09-11T07:50:44Z</time>
      </trkpt>
      <trkpt lat="43.75374" lon="7.02224">
        <ele>947.3</ele>
        <time>2017-09-11T07:50:50Z</time>
      </trkpt>
      <trkpt lat="43.75377" lon="7.0221">
        <ele>947.1</ele>
        <time>2017-09-11T07:50:58Z</time>
      </trkpt>
      <trkpt lat="43.75377" lon="7.02189">
        <ele>946.8</ele>
        <time>2017-09-11T07:51:07Z</time>
      </trkpt>
      <trkpt lat="43.75376" lon="7.02168">
        <ele>946.4</ele>
        <time>2017-09-11T07:51:16Z</time>
      </trkpt>
      <trkpt lat="43.75375" lon="7.0216">
        <ele>946</ele>
        <time>2017-09-11T07:51:20Z</time>
      </trkpt>
      <trkpt lat="43.75369" lon="7.02142">
        <ele>945.6</ele>
        <time>2017-09-11T07:51:28Z</time>
      </trkpt>
      <trkpt lat="43.75366" lon="7.02128">
        <ele>945</ele>
        <time>2017-09-11T07:51:38Z</time>
      </trkpt>
      <trkpt lat="43.75361" lon="7.02113">
        <ele>944.2</ele>
        <time>2017-09-11T07:51:46Z</time>
      </trkpt>
      <trkpt lat="43.75358" lon="7.02095">
        <ele>944.2</ele>
        <time>2017-09-11T07:51:54Z</time>
      </trkpt>
      <trkpt lat="43.7536" lon="7.0208">
        <ele>944.1</ele>
        <time>2017-09-11T07:52:01Z</time>
      </trkpt>
      <trkpt lat="43.75356" lon="7.02062">
        <ele>944.1</ele>
        <time>2017-09-11T07:52:12Z</time>
      </trkpt>
      <trkpt lat="43.75353" lon="7.02049">
        <ele>944.1</ele>
        <time>2017-09-11T07:52:19Z</time>
      </trkpt>
      <trkpt lat="43.75348" lon="7.02031">
        <ele>944.2</ele>
        <time>2017-09-11T07:52:27Z</time>
      </trkpt>
      <trkpt lat="43.75345" lon="7.02018">
        <ele>944.2</ele>
        <time>2017-09-11T07:52:33Z</time>
      </trkpt>
      <trkpt lat="43.75345" lon="7.01997">
        <ele>944.4</ele>
        <time>2017-09-11T07:52:44Z</time>
      </trkpt>
      <trkpt lat="43.75342" lon="7.01979">
        <ele>944.5</ele>
        <time>2017-09-11T07:52:53Z</time>
      </trkpt>
      <trkpt lat="43.75341" lon="7.0196">
        <ele>944.7</ele>
        <time>2017-09-11T07:53:02Z</time>
      </trkpt>
      <trkpt lat="43.7534" lon="7.01954">
        <ele>944.9</ele>
        <time>2017-09-11T07:53:06Z</time>
      </trkpt>
      <trkpt lat="43.75339" lon="7.01945">
        <ele>945.2</ele>
        <time>2017-09-11T07:53:10Z</time>
      </trkpt>
      <trkpt lat="43.75341" lon="7.01936">
        <ele>945.2</ele>
        <time>2017-09-11T07:53:14Z</time>
      </trkpt>
      <trkpt lat="43.75338" lon="7.0192">
        <ele>945.4</ele>
        <time>2017-09-11T07:53:21Z</time>
      </trkpt>
      <trkpt lat="43.75339" lon="7.01907">
        <ele>945.5</ele>
        <time>2017-09-11T07:53:27Z</time>
      </trkpt>
      <trkpt lat="43.75344" lon="7.01893">
        <ele>945.7</ele>
        <time>2017-09-11T07:53:35Z</time>
      </trkpt>
      <trkpt lat="43.75346" lon="7.01888">
        <ele>945.9</ele>
        <time>2017-09-11T07:53:38Z</time>
      </trkpt>
      <trkpt lat="43.75349" lon="7.01874">
        <ele>946</ele>
        <time>2017-09-11T07:53:45Z</time>
      </trkpt>
      <trkpt lat="43.75353" lon="7.01855">
        <ele>946.4</ele>
        <time>2017-09-11T07:53:55Z</time>
      </trkpt>
      <trkpt lat="43.75354" lon="7.01842">
        <ele>946.7</ele>
        <time>2017-09-11T07:54:00Z</time>
      </trkpt>
      <trkpt lat="43.75363" lon="7.01838">
        <ele>947</ele>
        <time>2017-09-11T07:54:09Z</time>
      </trkpt>
      <trkpt lat="43.75373" lon="7.01836">
        <ele>947.8</ele>
        <time>2017-09-11T07:54:16Z</time>
      </trkpt>
      <trkpt lat="43.75388" lon="7.01827">
        <ele>948.4</ele>
        <time>2017-09-11T07:54:28Z</time>
      </trkpt>
      <trkpt lat="43.75397" lon="7.01823">
        <ele>948.7</ele>
        <time>2017-09-11T07:54:33Z</time>
      </trkpt>
      <trkpt lat="43.7541" lon="7.01818">
        <ele>948.8</ele>
        <time>2017-09-11T07:54:41Z</time>
      </trkpt>
      <trkpt lat="43.75424" lon="7.01817">
        <ele>948.9</ele>
        <time>2017-09-11T07:54:53Z</time>
      </trkpt>
      <trkpt lat="43.75437" lon="7.01814">
        <ele>948.9</ele>
        <time>2017-09-11T07:55:01Z</time>
      </trkpt>
      <trkpt lat="43.75452" lon="7.0181">
        <ele>948.9</ele>
        <time>2017-09-11T07:55:12Z</time>
      </trkpt>
      <trkpt lat="43.75466" lon="7.01808">
        <ele>948.8</ele>
        <time>2017-09-11T07:55:19Z</time>
      </trkpt>
      <trkpt lat="43.75479" lon="7.01811">
        <ele>948.8</ele>
        <time>2017-09-11T07:55:28Z</time>
      </trkpt>
      <trkpt lat="43.75489" lon="7.01816">
        <ele>948.7</ele>
        <time>2017-09-11T07:55:37Z</time>
      </trkpt>
      <trkpt lat="43.75498" lon="7.01818">
        <ele>948.7</ele>
        <time>2017-09-11T07:55:42Z</time>
      </trkpt>
      <trkpt lat="43.75512" lon="7.01824">
        <ele>948.7</ele>
        <time>2017-09-11T07:55:53Z</time>
      </trkpt>
      <trkpt lat="43.75522" lon="7.01827">
        <ele>948.7</ele>
        <time>2017-09-11T07:56:00Z</time>
      </trkpt>
      <trkpt lat="43.75535" lon="7.01832">
        <ele>948.6</ele>
        <time>2017-09-11T07:56:09Z</time>
      </trkpt>
      <trkpt lat="43.75545" lon="7.01834">
        <ele>948.6</ele>
        <time>2017-09-11T07:56:15Z</time>
      </trkpt>
      <trkpt lat="43.75559" lon="7.01833">
        <ele>948.5</ele>
        <time>2017-09-11T07:56:24Z</time>
      </trkpt>
      <trkpt lat="43.75568" lon="7.01834">
        <ele>948.3</ele>
        <time>2017-09-11T07:56:30Z</time>
      </trkpt>
      <trkpt lat="43.75583" lon="7.01836">
        <ele>948.1</ele>
        <time>2017-09-11T07:56:40Z</time>
      </trkpt>
      <trkpt lat="43.75594" lon="7.01838">
        <ele>947.6</ele>
        <time>2017-09-11T07:56:47Z</time>
      </trkpt>
      <trkpt lat="43.75607" lon="7.0184">
        <ele>946.8</ele>
        <time>2017-09-11T07:56:55Z</time>
      </trkpt>
      <trkpt lat="43.7562" lon="7.0184">
        <ele>946.5</ele>
        <time>2017-09-11T07:57:04Z</time>
      </trkpt>
      <trkpt lat="43.75629" lon="7.01846">
        <ele>946.5</ele>
        <time>2017-09-11T07:57:14Z</time>
      </trkpt>
      <trkpt lat="43.75645" lon="7.01849">
        <ele>946.6</ele>
        <time>2017-09-11T07:57:28Z</time>
      </trkpt>
      <trkpt lat="43.75654" lon="7.01852">
        <ele>947.3</ele>
        <time>2017-09-11T07:57:35Z</time>
      </trkpt>
      <trkpt lat="43.75666" lon="7.01856">
        <ele>947.9</ele>
        <time>2017-09-11T07:57:43Z</time>
      </trkpt>
      <trkpt lat="43.75671" lon="7.01857">
        <ele>948.6</ele>
        <time>2017-09-11T07:57:49Z</time>
      </trkpt>
      <trkpt lat="43.75677" lon="7.01861">
        <ele>948.6</ele>
        <time>2017-09-11T07:57:53Z</time>
      </trkpt>
      <trkpt lat="43.75682" lon="7.01864">
        <ele>948.8</ele>
        <time>2017-09-11T07:57:58Z</time>
      </trkpt>
      <trkpt lat="43.75691" lon="7.0187">
        <ele>949.2</ele>
        <time>2017-09-11T07:58:05Z</time>
      </trkpt>
      <trkpt lat="43.75705" lon="7.01876">
        <ele>949.8</ele>
        <time>2017-09-11T07:58:16Z</time>
      </trkpt>
      <trkpt lat="43.75716" lon="7.01879">
        <ele>950.3</ele>
        <time>2017-09-11T07:58:25Z</time>
      </trkpt>
      <trkpt lat="43.75722" lon="7.01881">
        <ele>950.4</ele>
        <time>2017-09-11T07:58:29Z</time>
      </trkpt>
      <trkpt lat="43.75731" lon="7.01884">
        <ele>950.5</ele>
        <time>2017-09-11T07:58:37Z</time>
      </trkpt>
      <trkpt lat="43.75736" lon="7.01885">
        <ele>950.6</ele>
        <time>2017-09-11T07:58:39Z</time>
      </trkpt>
      <trkpt lat="43.75741" lon="7.01888">
        <ele>950.8</ele>
        <time>2017-09-11T07:58:44Z</time>
      </trkpt>
      <trkpt lat="43.75746" lon="7.01889">
        <ele>950.8</ele>
        <time>2017-09-11T07:58:47Z</time>
      </trkpt>
      <trkpt lat="43.75758" lon="7.01896">
        <ele>951.3</ele>
        <time>2017-09-11T07:58:58Z</time>
      </trkpt>
      <trkpt lat="43.75769" lon="7.01901">
        <ele>951.7</ele>
        <time>2017-09-11T07:59:07Z</time>
      </trkpt>
      <trkpt lat="43.75778" lon="7.01903">
        <ele>952.2</ele>
        <time>2017-09-11T07:59:14Z</time>
      </trkpt>
      <trkpt lat="43.75788" lon="7.01907">
        <ele>952.3</ele>
        <time>2017-09-11T07:59:20Z</time>
      </trkpt>
      <trkpt lat="43.75798" lon="7.01908">
        <ele>953</ele>
        <time>2017-09-11T07:59:30Z</time>
      </trkpt>
      <trkpt lat="43.75801" lon="7.01905">
        <ele>954.8</ele>
        <time>2017-09-11T08:00:21Z</time>
      </trkpt>
      <trkpt lat="43.758" lon="7.01898">
        <ele>954.5</ele>
        <time>2017-09-11T08:05:58Z</time>
      </trkpt>
      <trkpt lat="43.75803" lon="7.01891">
        <ele>954.5</ele>
        <time>2017-09-11T08:06:03Z</time>
      </trkpt>
      <trkpt lat="43.75809" lon="7.01872">
        <ele>954.5</ele>
        <time>2017-09-11T08:06:13Z</time>
      </trkpt>
      <trkpt lat="43.75811" lon="7.01857">
        <ele>954.6</ele>
        <time>2017-09-11T08:06:23Z</time>
      </trkpt>
      <trkpt lat="43.75808" lon="7.01845">
        <ele>955.2</ele>
        <time>2017-09-11T08:06:29Z</time>
      </trkpt>
      <trkpt lat="43.75807" lon="7.01824">
        <ele>956.1</ele>
        <time>2017-09-11T08:06:39Z</time>
      </trkpt>
      <trkpt lat="43.75806" lon="7.01805">
        <ele>956.5</ele>
        <time>2017-09-11T08:06:52Z</time>
      </trkpt>
      <trkpt lat="43.75807" lon="7.01786">
        <ele>956.9</ele>
        <time>2017-09-11T08:07:03Z</time>
      </trkpt>
      <trkpt lat="43.75805" lon="7.01767">
        <ele>957.6</ele>
        <time>2017-09-11T08:07:13Z</time>
      </trkpt>
      <trkpt lat="43.75805" lon="7.01754">
        <ele>958</ele>
        <time>2017-09-11T08:07:19Z</time>
      </trkpt>
      <trkpt lat="43.75806" lon="7.01746">
        <ele>958.2</ele>
        <time>2017-09-11T08:07:24Z</time>
      </trkpt>
      <trkpt lat="43.75811" lon="7.01733">
        <ele>958.3</ele>
        <time>2017-09-11T08:07:31Z</time>
      </trkpt>
      <trkpt lat="43.75813" lon="7.0172">
        <ele>958.4</ele>
        <time>2017-09-11T08:07:37Z</time>
      </trkpt>
      <trkpt lat="43.75815" lon="7.017">
        <ele>958.5</ele>
        <time>2017-09-11T08:07:49Z</time>
      </trkpt>
      <trkpt lat="43.75814" lon="7.01694">
        <ele>958.6</ele>
        <time>2017-09-11T08:07:55Z</time>
      </trkpt>
      <trkpt lat="43.75812" lon="7.01681">
        <ele>958.7</ele>
        <time>2017-09-11T08:08:01Z</time>
      </trkpt>
      <trkpt lat="43.75808" lon="7.01666">
        <ele>959.9</ele>
        <time>2017-09-11T08:08:09Z</time>
      </trkpt>
      <trkpt lat="43.75805" lon="7.01662">
        <ele>959.9</ele>
        <time>2017-09-11T08:08:13Z</time>
      </trkpt>
      <trkpt lat="43.75799" lon="7.01652">
        <ele>960.6</ele>
        <time>2017-09-11T08:08:20Z</time>
      </trkpt>
      <trkpt lat="43.75798" lon="7.01637">
        <ele>961.1</ele>
        <time>2017-09-11T08:08:30Z</time>
      </trkpt>
      <trkpt lat="43.75797" lon="7.01617">
        <ele>961.5</ele>
        <time>2017-09-11T08:08:40Z</time>
      </trkpt>
      <trkpt lat="43.75796" lon="7.01598">
        <ele>961.8</ele>
        <time>2017-09-11T08:08:51Z</time>
      </trkpt>
      <trkpt lat="43.75794" lon="7.01579">
        <ele>962</ele>
        <time>2017-09-11T08:09:00Z</time>
      </trkpt>
      <trkpt lat="43.75792" lon="7.01571">
        <ele>962.2</ele>
        <time>2017-09-11T08:09:09Z</time>
      </trkpt>
      <trkpt lat="43.75794" lon="7.01564">
        <ele>962.2</ele>
        <time>2017-09-11T08:09:12Z</time>
      </trkpt>
      <trkpt lat="43.758" lon="7.01552">
        <ele>962.2</ele>
        <time>2017-09-11T08:09:21Z</time>
      </trkpt>
      <trkpt lat="43.7581" lon="7.01539">
        <ele>962</ele>
        <time>2017-09-11T08:09:39Z</time>
      </trkpt>
      <trkpt lat="43.75815" lon="7.01536">
        <ele>961.8</ele>
        <time>2017-09-11T08:09:44Z</time>
      </trkpt>
      <trkpt lat="43.75829" lon="7.01526">
        <ele>960.3</ele>
        <time>2017-09-11T08:09:55Z</time>
      </trkpt>
      <trkpt lat="43.75842" lon="7.01517">
        <ele>958.9</ele>
        <time>2017-09-11T08:10:07Z</time>
      </trkpt>
      <trkpt lat="43.7585" lon="7.0151">
        <ele>957.5</ele>
        <time>2017-09-11T08:10:15Z</time>
      </trkpt>
      <trkpt lat="43.75856" lon="7.01506">
        <ele>956.3</ele>
        <time>2017-09-11T08:10:21Z</time>
      </trkpt>
      <trkpt lat="43.75861" lon="7.01502">
        <ele>956.3</ele>
        <time>2017-09-11T08:10:23Z</time>
      </trkpt>
      <trkpt lat="43.75875" lon="7.01491">
        <ele>954.3</ele>
        <time>2017-09-11T08:10:35Z</time>
      </trkpt>
      <trkpt lat="43.75885" lon="7.01484">
        <ele>951.7</ele>
        <time>2017-09-11T08:10:46Z</time>
      </trkpt>
      <trkpt lat="43.75891" lon="7.01475">
        <ele>950.8</ele>
        <time>2017-09-11T08:10:53Z</time>
      </trkpt>
      <trkpt lat="43.759" lon="7.01467">
        <ele>949.2</ele>
        <time>2017-09-11T08:11:00Z</time>
      </trkpt>
      <trkpt lat="43.75905" lon="7.01462">
        <ele>947.4</ele>
        <time>2017-09-11T08:11:03Z</time>
      </trkpt>
      <trkpt lat="43.75909" lon="7.01462">
        <ele>947.4</ele>
        <time>2017-09-11T08:11:06Z</time>
      </trkpt>
      <trkpt lat="43.75919" lon="7.01461">
        <ele>944.8</ele>
        <time>2017-09-11T08:11:14Z</time>
      </trkpt>
      <trkpt lat="43.75924" lon="7.01457">
        <ele>943.4</ele>
        <time>2017-09-11T08:11:20Z</time>
      </trkpt>
      <trkpt lat="43.75933" lon="7.01452">
        <ele>942</ele>
        <time>2017-09-11T08:11:28Z</time>
      </trkpt>
      <trkpt lat="43.75943" lon="7.01448">
        <ele>941</ele>
        <time>2017-09-11T08:11:36Z</time>
      </trkpt>
      <trkpt lat="43.75946" lon="7.01444">
        <ele>939.4</ele>
        <time>2017-09-11T08:11:40Z</time>
      </trkpt>
      <trkpt lat="43.75951" lon="7.01443">
        <ele>939.4</ele>
        <time>2017-09-11T08:11:43Z</time>
      </trkpt>
      <trkpt lat="43.75956" lon="7.01443">
        <ele>938.4</ele>
        <time>2017-09-11T08:11:46Z</time>
      </trkpt>
      <trkpt lat="43.75961" lon="7.0144">
        <ele>938.4</ele>
        <time>2017-09-11T08:11:50Z</time>
      </trkpt>
      <trkpt lat="43.75967" lon="7.01437">
        <ele>936.8</ele>
        <time>2017-09-11T08:11:54Z</time>
      </trkpt>
      <trkpt lat="43.75974" lon="7.01427">
        <ele>935.8</ele>
        <time>2017-09-11T08:12:00Z</time>
      </trkpt>
      <trkpt lat="43.75982" lon="7.01421">
        <ele>934.1</ele>
        <time>2017-09-11T08:12:10Z</time>
      </trkpt>
      <trkpt lat="43.75991" lon="7.01415">
        <ele>932.8</ele>
        <time>2017-09-11T08:12:19Z</time>
      </trkpt>
      <trkpt lat="43.75999" lon="7.01404">
        <ele>932</ele>
        <time>2017-09-11T08:12:28Z</time>
      </trkpt>
      <trkpt lat="43.76004" lon="7.01402">
        <ele>930.8</ele>
        <time>2017-09-11T08:12:36Z</time>
      </trkpt>
      <trkpt lat="43.76012" lon="7.01395">
        <ele>929.9</ele>
        <time>2017-09-11T08:12:44Z</time>
      </trkpt>
      <trkpt lat="43.76026" lon="7.01391">
        <ele>928.2</ele>
        <time>2017-09-11T08:12:56Z</time>
      </trkpt>
      <trkpt lat="43.76035" lon="7.01388">
        <ele>927.1</ele>
        <time>2017-09-11T08:13:03Z</time>
      </trkpt>
      <trkpt lat="43.76039" lon="7.01385">
        <ele>927.1</ele>
        <time>2017-09-11T08:13:08Z</time>
      </trkpt>
      <trkpt lat="43.76053" lon="7.01387">
        <ele>927</ele>
        <time>2017-09-11T08:13:27Z</time>
      </trkpt>
      <trkpt lat="43.76068" lon="7.01388">
        <ele>929.1</ele>
        <time>2017-09-11T08:13:42Z</time>
      </trkpt>
      <trkpt lat="43.76073" lon="7.01392">
        <ele>930</ele>
        <time>2017-09-11T08:13:47Z</time>
      </trkpt>
      <trkpt lat="43.76079" lon="7.01394">
        <ele>930.9</ele>
        <time>2017-09-11T08:13:53Z</time>
      </trkpt>
      <trkpt lat="43.76086" lon="7.01397">
        <ele>932.3</ele>
        <time>2017-09-11T08:13:57Z</time>
      </trkpt>
      <trkpt lat="43.76094" lon="7.01402">
        <ele>933.4</ele>
        <time>2017-09-11T08:14:10Z</time>
      </trkpt>
      <trkpt lat="43.76106" lon="7.01412">
        <ele>934.7</ele>
        <time>2017-09-11T08:14:22Z</time>
      </trkpt>
      <trkpt lat="43.76119" lon="7.01419">
        <ele>936.1</ele>
        <time>2017-09-11T08:14:35Z</time>
      </trkpt>
      <trkpt lat="43.76128" lon="7.01422">
        <ele>937.3</ele>
        <time>2017-09-11T08:14:43Z</time>
      </trkpt>
      <trkpt lat="43.76137" lon="7.01429">
        <ele>938.7</ele>
        <time>2017-09-11T08:14:50Z</time>
      </trkpt>
      <trkpt lat="43.76144" lon="7.0144">
        <ele>940.7</ele>
        <time>2017-09-11T08:15:07Z</time>
      </trkpt>
      <trkpt lat="43.76152" lon="7.01447">
        <ele>941.6</ele>
        <time>2017-09-11T08:15:16Z</time>
      </trkpt>
      <trkpt lat="43.76159" lon="7.01445">
        <ele>943</ele>
        <time>2017-09-11T08:15:22Z</time>
      </trkpt>
      <trkpt lat="43.76161" lon="7.0144">
        <ele>943.5</ele>
        <time>2017-09-11T08:15:28Z</time>
      </trkpt>
      <trkpt lat="43.76156" lon="7.01439">
        <ele>948.5</ele>
        <time>2017-09-11T08:16:16Z</time>
      </trkpt>
      <trkpt lat="43.76157" lon="7.01433">
        <ele>948.8</ele>
        <time>2017-09-11T08:16:47Z</time>
      </trkpt>
      <trkpt lat="43.76165" lon="7.01427">
        <ele>949.1</ele>
        <time>2017-09-11T08:17:07Z</time>
      </trkpt>
      <trkpt lat="43.7616" lon="7.01424">
        <ele>949.5</ele>
        <time>2017-09-11T08:18:16Z</time>
      </trkpt>
      <trkpt lat="43.76157" lon="7.01433">
        <ele>949.3</ele>
        <time>2017-09-11T08:20:12Z</time>
      </trkpt>
      <trkpt lat="43.76155" lon="7.01427">
        <ele>949.3</ele>
        <time>2017-09-11T08:22:32Z</time>
      </trkpt>
      <trkpt lat="43.7616" lon="7.01429">
        <ele>949.8</ele>
        <time>2017-09-11T08:24:16Z</time>
      </trkpt>
      <trkpt lat="43.76161" lon="7.01421">
        <ele>949.9</ele>
        <time>2017-09-11T08:25:38Z</time>
      </trkpt>
      <trkpt lat="43.76166" lon="7.01408">
        <ele>949.9</ele>
        <time>2017-09-11T08:25:47Z</time>
      </trkpt>
      <trkpt lat="43.76178" lon="7.01397">
        <ele>950</ele>
        <time>2017-09-11T08:26:00Z</time>
      </trkpt>
      <trkpt lat="43.76183" lon="7.01394">
        <ele>950.1</ele>
        <time>2017-09-11T08:26:04Z</time>
      </trkpt>
      <trkpt lat="43.76192" lon="7.01388">
        <ele>950.5</ele>
        <time>2017-09-11T08:26:12Z</time>
      </trkpt>
      <trkpt lat="43.76205" lon="7.01381">
        <ele>951.5</ele>
        <time>2017-09-11T08:26:21Z</time>
      </trkpt>
      <trkpt lat="43.76214" lon="7.01367">
        <ele>952.3</ele>
        <time>2017-09-11T08:26:31Z</time>
      </trkpt>
      <trkpt lat="43.76212" lon="7.01353">
        <ele>952.5</ele>
        <time>2017-09-11T08:26:38Z</time>
      </trkpt>
      <trkpt lat="43.7621" lon="7.01332">
        <ele>952.6</ele>
        <time>2017-09-11T08:26:48Z</time>
      </trkpt>
      <trkpt lat="43.76219" lon="7.01318">
        <ele>952.8</ele>
        <time>2017-09-11T08:26:59Z</time>
      </trkpt>
      <trkpt lat="43.76227" lon="7.01315">
        <ele>952.8</ele>
        <time>2017-09-11T08:27:07Z</time>
      </trkpt>
      <trkpt lat="43.76241" lon="7.0131">
        <ele>952.7</ele>
        <time>2017-09-11T08:27:17Z</time>
      </trkpt>
      <trkpt lat="43.76254" lon="7.01307">
        <ele>952.6</ele>
        <time>2017-09-11T08:27:26Z</time>
      </trkpt>
      <trkpt lat="43.76263" lon="7.01297">
        <ele>952.6</ele>
        <time>2017-09-11T08:27:33Z</time>
      </trkpt>
      <trkpt lat="43.76267" lon="7.01284">
        <ele>952.7</ele>
        <time>2017-09-11T08:27:40Z</time>
      </trkpt>
      <trkpt lat="43.76267" lon="7.01278">
        <ele>952.7</ele>
        <time>2017-09-11T08:27:46Z</time>
      </trkpt>
      <trkpt lat="43.76271" lon="7.01274">
        <ele>952.7</ele>
        <time>2017-09-11T08:27:49Z</time>
      </trkpt>
      <trkpt lat="43.76281" lon="7.01258">
        <ele>952.7</ele>
        <time>2017-09-11T08:28:01Z</time>
      </trkpt>
      <trkpt lat="43.76293" lon="7.01246">
        <ele>952.7</ele>
        <time>2017-09-11T08:28:11Z</time>
      </trkpt>
      <trkpt lat="43.76304" lon="7.01233">
        <ele>952.7</ele>
        <time>2017-09-11T08:28:21Z</time>
      </trkpt>
      <trkpt lat="43.76305" lon="7.0122">
        <ele>952.7</ele>
        <time>2017-09-11T08:28:26Z</time>
      </trkpt>
      <trkpt lat="43.76306" lon="7.01204">
        <ele>952.7</ele>
        <time>2017-09-11T08:28:33Z</time>
      </trkpt>
      <trkpt lat="43.76309" lon="7.01191">
        <ele>952.4</ele>
        <time>2017-09-11T08:28:41Z</time>
      </trkpt>
      <trkpt lat="43.7631" lon="7.01175">
        <ele>952.4</ele>
        <time>2017-09-11T08:28:48Z</time>
      </trkpt>
      <trkpt lat="43.76307" lon="7.01156">
        <ele>952.4</ele>
        <time>2017-09-11T08:29:01Z</time>
      </trkpt>
      <trkpt lat="43.76307" lon="7.01141">
        <ele>952.4</ele>
        <time>2017-09-11T08:29:08Z</time>
      </trkpt>
      <trkpt lat="43.76309" lon="7.01132">
        <ele>952.9</ele>
        <time>2017-09-11T08:29:13Z</time>
      </trkpt>
      <trkpt lat="43.76317" lon="7.01127">
        <ele>953.5</ele>
        <time>2017-09-11T08:29:20Z</time>
      </trkpt>
      <trkpt lat="43.76329" lon="7.0112">
        <ele>954.9</ele>
        <time>2017-09-11T08:29:29Z</time>
      </trkpt>
      <trkpt lat="43.76345" lon="7.01121">
        <ele>955.2</ele>
        <time>2017-09-11T08:29:40Z</time>
      </trkpt>
      <trkpt lat="43.7635" lon="7.01119">
        <ele>955.4</ele>
        <time>2017-09-11T08:29:45Z</time>
      </trkpt>
      <trkpt lat="43.76356" lon="7.0112">
        <ele>955.4</ele>
        <time>2017-09-11T08:29:49Z</time>
      </trkpt>
      <trkpt lat="43.76367" lon="7.01116">
        <ele>955.6</ele>
        <time>2017-09-11T08:29:58Z</time>
      </trkpt>
      <trkpt lat="43.76381" lon="7.01121">
        <ele>956.4</ele>
        <time>2017-09-11T08:30:10Z</time>
      </trkpt>
      <trkpt lat="43.76387" lon="7.01139">
        <ele>957.3</ele>
        <time>2017-09-11T08:30:22Z</time>
      </trkpt>
      <trkpt lat="43.76399" lon="7.0115">
        <ele>958.5</ele>
        <time>2017-09-11T08:30:34Z</time>
      </trkpt>
      <trkpt lat="43.76403" lon="7.01153">
        <ele>959.2</ele>
        <time>2017-09-11T08:30:37Z</time>
      </trkpt>
      <trkpt lat="43.7641" lon="7.01162">
        <ele>959.7</ele>
        <time>2017-09-11T08:30:46Z</time>
      </trkpt>
      <trkpt lat="43.76418" lon="7.01171">
        <ele>960.5</ele>
        <time>2017-09-11T08:30:53Z</time>
      </trkpt>
      <trkpt lat="43.76428" lon="7.01186">
        <ele>961.5</ele>
        <time>2017-09-11T08:31:03Z</time>
      </trkpt>
      <trkpt lat="43.76442" lon="7.01195">
        <ele>963.1</ele>
        <time>2017-09-11T08:31:14Z</time>
      </trkpt>
      <trkpt lat="43.76455" lon="7.01203">
        <ele>963.7</ele>
        <time>2017-09-11T08:31:25Z</time>
      </trkpt>
      <trkpt lat="43.76469" lon="7.0121">
        <ele>964.1</ele>
        <time>2017-09-11T08:31:33Z</time>
      </trkpt>
      <trkpt lat="43.76481" lon="7.01218">
        <ele>964.6</ele>
        <time>2017-09-11T08:31:46Z</time>
      </trkpt>
      <trkpt lat="43.76492" lon="7.01222">
        <ele>964.8</ele>
        <time>2017-09-11T08:31:53Z</time>
      </trkpt>
      <trkpt lat="43.76501" lon="7.01225">
        <ele>964.9</ele>
        <time>2017-09-11T08:31:59Z</time>
      </trkpt>
      <trkpt lat="43.76509" lon="7.01232">
        <ele>964.9</ele>
        <time>2017-09-11T08:32:04Z</time>
      </trkpt>
      <trkpt lat="43.76521" lon="7.01244">
        <ele>964.9</ele>
        <time>2017-09-11T08:32:15Z</time>
      </trkpt>
      <trkpt lat="43.76535" lon="7.01255">
        <ele>964.9</ele>
        <time>2017-09-11T08:32:24Z</time>
      </trkpt>
      <trkpt lat="43.76543" lon="7.01263">
        <ele>964.8</ele>
        <time>2017-09-11T08:32:32Z</time>
      </trkpt>
      <trkpt lat="43.76547" lon="7.01267">
        <ele>964.8</ele>
        <time>2017-09-11T08:32:35Z</time>
      </trkpt>
      <trkpt lat="43.7655" lon="7.01272">
        <ele>964.8</ele>
        <time>2017-09-11T08:32:39Z</time>
      </trkpt>
      <trkpt lat="43.76558" lon="7.01281">
        <ele>964.8</ele>
        <time>2017-09-11T08:32:48Z</time>
      </trkpt>
      <trkpt lat="43.76567" lon="7.01284">
        <ele>965</ele>
        <time>2017-09-11T08:32:57Z</time>
      </trkpt>
      <trkpt lat="43.76577" lon="7.013">
        <ele>966.2</ele>
        <time>2017-09-11T08:33:11Z</time>
      </trkpt>
      <trkpt lat="43.76579" lon="7.01314">
        <ele>967</ele>
        <time>2017-09-11T08:33:19Z</time>
      </trkpt>
      <trkpt lat="43.76586" lon="7.01322">
        <ele>967.2</ele>
        <time>2017-09-11T08:33:25Z</time>
      </trkpt>
      <trkpt lat="43.76593" lon="7.01326">
        <ele>967.2</ele>
        <time>2017-09-11T08:33:29Z</time>
      </trkpt>
      <trkpt lat="43.76605" lon="7.01334">
        <ele>967.4</ele>
        <time>2017-09-11T08:33:41Z</time>
      </trkpt>
      <trkpt lat="43.76619" lon="7.01343">
        <ele>967.6</ele>
        <time>2017-09-11T08:33:52Z</time>
      </trkpt>
      <trkpt lat="43.76627" lon="7.0136">
        <ele>967.9</ele>
        <time>2017-09-11T08:34:05Z</time>
      </trkpt>
      <trkpt lat="43.76629" lon="7.01375">
        <ele>968.4</ele>
        <time>2017-09-11T08:34:14Z</time>
      </trkpt>
      <trkpt lat="43.7663" lon="7.01389">
        <ele>969.9</ele>
        <time>2017-09-11T08:34:23Z</time>
      </trkpt>
      <trkpt lat="43.76636" lon="7.01399">
        <ele>970.1</ele>
        <time>2017-09-11T08:34:29Z</time>
      </trkpt>
      <trkpt lat="43.76649" lon="7.0141">
        <ele>970.7</ele>
        <time>2017-09-11T08:34:39Z</time>
      </trkpt>
      <trkpt lat="43.76658" lon="7.01419">
        <ele>970.9</ele>
        <time>2017-09-11T08:34:48Z</time>
      </trkpt>
      <trkpt lat="43.76667" lon="7.01424">
        <ele>971.1</ele>
        <time>2017-09-11T08:34:56Z</time>
      </trkpt>
      <trkpt lat="43.76677" lon="7.01429">
        <ele>971.4</ele>
        <time>2017-09-11T08:35:02Z</time>
      </trkpt>
      <trkpt lat="43.76682" lon="7.01434">
        <ele>971.7</ele>
        <time>2017-09-11T08:35:07Z</time>
      </trkpt>
      <trkpt lat="43.76696" lon="7.01438">
        <ele>972</ele>
        <time>2017-09-11T08:35:17Z</time>
      </trkpt>
      <trkpt lat="43.76705" lon="7.01439">
        <ele>972.2</ele>
        <time>2017-09-11T08:35:24Z</time>
      </trkpt>
      <trkpt lat="43.76719" lon="7.01447">
        <ele>972.4</ele>
        <time>2017-09-11T08:35:35Z</time>
      </trkpt>
      <trkpt lat="43.76733" lon="7.01457">
        <ele>973</ele>
        <time>2017-09-11T08:35:47Z</time>
      </trkpt>
      <trkpt lat="43.76743" lon="7.01463">
        <ele>973.6</ele>
        <time>2017-09-11T08:35:54Z</time>
      </trkpt>
      <trkpt lat="43.76746" lon="7.01467">
        <ele>973.6</ele>
        <time>2017-09-11T08:35:57Z</time>
      </trkpt>
      <trkpt lat="43.76761" lon="7.01467">
        <ele>973.7</ele>
        <time>2017-09-11T08:36:07Z</time>
      </trkpt>
      <trkpt lat="43.76776" lon="7.01468">
        <ele>973.9</ele>
        <time>2017-09-11T08:36:19Z</time>
      </trkpt>
      <trkpt lat="43.76782" lon="7.01478">
        <ele>974</ele>
        <time>2017-09-11T08:36:27Z</time>
      </trkpt>
      <trkpt lat="43.76787" lon="7.01491">
        <ele>974</ele>
        <time>2017-09-11T08:36:34Z</time>
      </trkpt>
      <trkpt lat="43.76787" lon="7.0151">
        <ele>973.9</ele>
        <time>2017-09-11T08:36:43Z</time>
      </trkpt>
      <trkpt lat="43.76781" lon="7.01521">
        <ele>973.8</ele>
        <time>2017-09-11T08:36:50Z</time>
      </trkpt>
      <trkpt lat="43.76772" lon="7.01536">
        <ele>973.8</ele>
        <time>2017-09-11T08:37:00Z</time>
      </trkpt>
      <trkpt lat="43.76768" lon="7.01548">
        <ele>973.7</ele>
        <time>2017-09-11T08:37:08Z</time>
      </trkpt>
      <trkpt lat="43.76766" lon="7.01554">
        <ele>973.3</ele>
        <time>2017-09-11T08:37:12Z</time>
      </trkpt>
      <trkpt lat="43.76769" lon="7.01566">
        <ele>973.1</ele>
        <time>2017-09-11T08:37:21Z</time>
      </trkpt>
      <trkpt lat="43.7678" lon="7.01576">
        <ele>973.1</ele>
        <time>2017-09-11T08:37:30Z</time>
      </trkpt>
      <trkpt lat="43.76787" lon="7.01586">
        <ele>973.1</ele>
        <time>2017-09-11T08:37:41Z</time>
      </trkpt>
      <trkpt lat="43.76795" lon="7.01595">
        <ele>973.5</ele>
        <time>2017-09-11T08:37:48Z</time>
      </trkpt>
      <trkpt lat="43.76799" lon="7.01599">
        <ele>974.1</ele>
        <time>2017-09-11T08:37:52Z</time>
      </trkpt>
      <trkpt lat="43.76806" lon="7.01607">
        <ele>974.5</ele>
        <time>2017-09-11T08:37:59Z</time>
      </trkpt>
      <trkpt lat="43.76812" lon="7.01606">
        <ele>975</ele>
        <time>2017-09-11T08:38:04Z</time>
      </trkpt>
      <trkpt lat="43.76822" lon="7.01607">
        <ele>975.5</ele>
        <time>2017-09-11T08:38:10Z</time>
      </trkpt>
      <trkpt lat="43.7683" lon="7.01612">
        <ele>976</ele>
        <time>2017-09-11T08:38:17Z</time>
      </trkpt>
      <trkpt lat="43.76841" lon="7.01624">
        <ele>976.6</ele>
        <time>2017-09-11T08:38:26Z</time>
      </trkpt>
      <trkpt lat="43.76845" lon="7.01636">
        <ele>977.3</ele>
        <time>2017-09-11T08:38:33Z</time>
      </trkpt>
      <trkpt lat="43.76849" lon="7.0164">
        <ele>977.6</ele>
        <time>2017-09-11T08:38:36Z</time>
      </trkpt>
      <trkpt lat="43.7685" lon="7.01649">
        <ele>978</ele>
        <time>2017-09-11T08:38:46Z</time>
      </trkpt>
      <trkpt lat="43.76854" lon="7.01656">
        <ele>978</ele>
        <time>2017-09-11T08:38:49Z</time>
      </trkpt>
      <trkpt lat="43.76858" lon="7.01659">
        <ele>978.3</ele>
        <time>2017-09-11T08:38:52Z</time>
      </trkpt>
      <trkpt lat="43.76862" lon="7.01663">
        <ele>978.3</ele>
        <time>2017-09-11T08:38:56Z</time>
      </trkpt>
      <trkpt lat="43.76871" lon="7.01673">
        <ele>978.6</ele>
        <time>2017-09-11T08:39:05Z</time>
      </trkpt>
      <trkpt lat="43.76877" lon="7.01685">
        <ele>979.6</ele>
        <time>2017-09-11T08:39:14Z</time>
      </trkpt>
      <trkpt lat="43.76884" lon="7.01695">
        <ele>980.4</ele>
        <time>2017-09-11T08:39:23Z</time>
      </trkpt>
      <trkpt lat="43.76896" lon="7.01705">
        <ele>981.3</ele>
        <time>2017-09-11T08:39:34Z</time>
      </trkpt>
      <trkpt lat="43.76908" lon="7.01714">
        <ele>982.5</ele>
        <time>2017-09-11T08:39:44Z</time>
      </trkpt>
      <trkpt lat="43.76916" lon="7.01721">
        <ele>983.6</ele>
        <time>2017-09-11T08:39:48Z</time>
      </trkpt>
      <trkpt lat="43.7693" lon="7.01725">
        <ele>983.9</ele>
        <time>2017-09-11T08:40:00Z</time>
      </trkpt>
      <trkpt lat="43.76934" lon="7.01723">
        <ele>984.4</ele>
        <time>2017-09-11T08:40:06Z</time>
      </trkpt>
      <trkpt lat="43.76938" lon="7.01719">
        <ele>984.6</ele>
        <time>2017-09-11T08:40:14Z</time>
      </trkpt>
      <trkpt lat="43.76932" lon="7.01718">
        <ele>985.4</ele>
        <time>2017-09-11T08:41:59Z</time>
      </trkpt>
      <trkpt lat="43.7693" lon="7.01726">
        <ele>985.4</ele>
        <time>2017-09-11T08:42:08Z</time>
      </trkpt>
      <trkpt lat="43.76929" lon="7.0172">
        <ele>985.4</ele>
        <time>2017-09-11T08:42:17Z</time>
      </trkpt>
      <trkpt lat="43.76937" lon="7.01725">
        <ele>985.4</ele>
        <time>2017-09-11T08:42:59Z</time>
      </trkpt>
      <trkpt lat="43.7693" lon="7.01709">
        <ele>985.5</ele>
        <time>2017-09-11T08:44:30Z</time>
      </trkpt>
      <trkpt lat="43.76923" lon="7.01701">
        <ele>985.5</ele>
        <time>2017-09-11T08:44:39Z</time>
      </trkpt>
      <trkpt lat="43.76916" lon="7.01683">
        <ele>985.4</ele>
        <time>2017-09-11T08:44:50Z</time>
      </trkpt>
      <trkpt lat="43.76908" lon="7.01658">
        <ele>985.4</ele>
        <time>2017-09-11T08:45:01Z</time>
      </trkpt>
      <trkpt lat="43.76906" lon="7.01631">
        <ele>984.7</ele>
        <time>2017-09-11T08:45:13Z</time>
      </trkpt>
      <trkpt lat="43.76905" lon="7.01612">
        <ele>983.9</ele>
        <time>2017-09-11T08:45:21Z</time>
      </trkpt>
      <trkpt lat="43.76905" lon="7.01599">
        <ele>982.6</ele>
        <time>2017-09-11T08:45:29Z</time>
      </trkpt>
      <trkpt lat="43.76904" lon="7.01582">
        <ele>982</ele>
        <time>2017-09-11T08:45:35Z</time>
      </trkpt>
      <trkpt lat="43.76901" lon="7.01567">
        <ele>981.9</ele>
        <time>2017-09-11T08:45:44Z</time>
      </trkpt>
      <trkpt lat="43.76901" lon="7.01552">
        <ele>981.9</ele>
        <time>2017-09-11T08:45:51Z</time>
      </trkpt>
      <trkpt lat="43.769" lon="7.01544">
        <ele>982</ele>
        <time>2017-09-11T08:45:57Z</time>
      </trkpt>
      <trkpt lat="43.76901" lon="7.01538">
        <ele>982</ele>
        <time>2017-09-11T08:46:00Z</time>
      </trkpt>
      <trkpt lat="43.76902" lon="7.01524">
        <ele>982.6</ele>
        <time>2017-09-11T08:46:07Z</time>
      </trkpt>
      <trkpt lat="43.76901" lon="7.0151">
        <ele>982.9</ele>
        <time>2017-09-11T08:46:12Z</time>
      </trkpt>
      <trkpt lat="43.76896" lon="7.01496">
        <ele>983.5</ele>
        <time>2017-09-11T08:46:19Z</time>
      </trkpt>
      <trkpt lat="43.76893" lon="7.01476">
        <ele>984.2</ele>
        <time>2017-09-11T08:46:29Z</time>
      </trkpt>
      <trkpt lat="43.76893" lon="7.01458">
        <ele>984.8</ele>
        <time>2017-09-11T08:46:40Z</time>
      </trkpt>
      <trkpt lat="43.76894" lon="7.01444">
        <ele>985.5</ele>
        <time>2017-09-11T08:46:47Z</time>
      </trkpt>
      <trkpt lat="43.76897" lon="7.01426">
        <ele>987.1</ele>
        <time>2017-09-11T08:46:57Z</time>
      </trkpt>
      <trkpt lat="43.76906" lon="7.01414">
        <ele>988.1</ele>
        <time>2017-09-11T08:47:05Z</time>
      </trkpt>
      <trkpt lat="43.76913" lon="7.01404">
        <ele>988.8</ele>
        <time>2017-09-11T08:47:15Z</time>
      </trkpt>
      <trkpt lat="43.76927" lon="7.01396">
        <ele>989.6</ele>
        <time>2017-09-11T08:47:23Z</time>
      </trkpt>
      <trkpt lat="43.76928" lon="7.01389">
        <ele>990.5</ele>
        <time>2017-09-11T08:47:27Z</time>
      </trkpt>
      <trkpt lat="43.76925" lon="7.01378">
        <ele>991.1</ele>
        <time>2017-09-11T08:47:32Z</time>
      </trkpt>
      <trkpt lat="43.76922" lon="7.01365">
        <ele>991.5</ele>
        <time>2017-09-11T08:47:37Z</time>
      </trkpt>
      <trkpt lat="43.76916" lon="7.01353">
        <ele>992.8</ele>
        <time>2017-09-11T08:47:44Z</time>
      </trkpt>
      <trkpt lat="43.76912" lon="7.01339">
        <ele>993.6</ele>
        <time>2017-09-11T08:47:53Z</time>
      </trkpt>
      <trkpt lat="43.76909" lon="7.01319">
        <ele>994.2</ele>
        <time>2017-09-11T08:48:06Z</time>
      </trkpt>
      <trkpt lat="43.76906" lon="7.013">
        <ele>995</ele>
        <time>2017-09-11T08:48:16Z</time>
      </trkpt>
      <trkpt lat="43.76901" lon="7.01289">
        <ele>995.6</ele>
        <time>2017-09-11T08:48:22Z</time>
      </trkpt>
      <trkpt lat="43.76897" lon="7.01282">
        <ele>996.1</ele>
        <time>2017-09-11T08:48:28Z</time>
      </trkpt>
      <trkpt lat="43.76893" lon="7.01277">
        <ele>998.3</ele>
        <time>2017-09-11T08:48:35Z</time>
      </trkpt>
      <trkpt lat="43.7689" lon="7.01268">
        <ele>998.3</ele>
        <time>2017-09-11T08:48:38Z</time>
      </trkpt>
      <trkpt lat="43.76883" lon="7.01252">
        <ele>1000</ele>
        <time>2017-09-11T08:48:50Z</time>
      </trkpt>
      <trkpt lat="43.76881" lon="7.01239">
        <ele>1001.2</ele>
        <time>2017-09-11T08:48:58Z</time>
      </trkpt>
      <trkpt lat="43.76878" lon="7.01219">
        <ele>1002</ele>
        <time>2017-09-11T08:49:12Z</time>
      </trkpt>
      <trkpt lat="43.76875" lon="7.01205">
        <ele>1003.3</ele>
        <time>2017-09-11T08:49:20Z</time>
      </trkpt>
      <trkpt lat="43.76872" lon="7.01192">
        <ele>1004.2</ele>
        <time>2017-09-11T08:49:26Z</time>
      </trkpt>
      <trkpt lat="43.7687" lon="7.01179">
        <ele>1005.2</ele>
        <time>2017-09-11T08:49:33Z</time>
      </trkpt>
      <trkpt lat="43.76868" lon="7.01163">
        <ele>1006.5</ele>
        <time>2017-09-11T08:49:41Z</time>
      </trkpt>
      <trkpt lat="43.76865" lon="7.01145">
        <ele>1006.7</ele>
        <time>2017-09-11T08:49:49Z</time>
      </trkpt>
      <trkpt lat="43.76862" lon="7.01131">
        <ele>1006.7</ele>
        <time>2017-09-11T08:49:58Z</time>
      </trkpt>
      <trkpt lat="43.76859" lon="7.01111">
        <ele>1006.7</ele>
        <time>2017-09-11T08:50:07Z</time>
      </trkpt>
      <trkpt lat="43.76859" lon="7.01097">
        <ele>1006.6</ele>
        <time>2017-09-11T08:50:13Z</time>
      </trkpt>
      <trkpt lat="43.76855" lon="7.01079">
        <ele>1005.8</ele>
        <time>2017-09-11T08:50:24Z</time>
      </trkpt>
      <trkpt lat="43.76849" lon="7.01061">
        <ele>1005.8</ele>
        <time>2017-09-11T08:50:35Z</time>
      </trkpt>
      <trkpt lat="43.76847" lon="7.01048">
        <ele>1005.8</ele>
        <time>2017-09-11T08:50:43Z</time>
      </trkpt>
      <trkpt lat="43.7684" lon="7.01031">
        <ele>1005.8</ele>
        <time>2017-09-11T08:50:51Z</time>
      </trkpt>
      <trkpt lat="43.76831" lon="7.01015">
        <ele>1006.7</ele>
        <time>2017-09-11T08:51:02Z</time>
      </trkpt>
      <trkpt lat="43.76829" lon="7.00996">
        <ele>1007.8</ele>
        <time>2017-09-11T08:51:15Z</time>
      </trkpt>
      <trkpt lat="43.76828" lon="7.00988">
        <ele>1008.4</ele>
        <time>2017-09-11T08:51:19Z</time>
      </trkpt>
      <trkpt lat="43.7683" lon="7.00978">
        <ele>1008.4</ele>
        <time>2017-09-11T08:51:23Z</time>
      </trkpt>
      <trkpt lat="43.76835" lon="7.00965">
        <ele>1008.8</ele>
        <time>2017-09-11T08:51:32Z</time>
      </trkpt>
      <trkpt lat="43.76839" lon="7.00959">
        <ele>1008.9</ele>
        <time>2017-09-11T08:51:35Z</time>
      </trkpt>
      <trkpt lat="43.76844" lon="7.00955">
        <ele>1008.9</ele>
        <time>2017-09-11T08:51:38Z</time>
      </trkpt>
      <trkpt lat="43.76856" lon="7.00945">
        <ele>1009</ele>
        <time>2017-09-11T08:51:50Z</time>
      </trkpt>
      <trkpt lat="43.76859" lon="7.00932">
        <ele>1009.5</ele>
        <time>2017-09-11T08:52:01Z</time>
      </trkpt>
      <trkpt lat="43.76857" lon="7.00926">
        <ele>1009.6</ele>
        <time>2017-09-11T08:52:06Z</time>
      </trkpt>
      <trkpt lat="43.76852" lon="7.00922">
        <ele>1009.6</ele>
        <time>2017-09-11T08:52:09Z</time>
      </trkpt>
      <trkpt lat="43.76842" lon="7.00919">
        <ele>1010.1</ele>
        <time>2017-09-11T08:52:16Z</time>
      </trkpt>
      <trkpt lat="43.76827" lon="7.0092">
        <ele>1010.2</ele>
        <time>2017-09-11T08:52:26Z</time>
      </trkpt>
      <trkpt lat="43.76811" lon="7.00916">
        <ele>1010.2</ele>
        <time>2017-09-11T08:52:39Z</time>
      </trkpt>
      <trkpt lat="43.76795" lon="7.00916">
        <ele>1009.9</ele>
        <time>2017-09-11T08:52:50Z</time>
      </trkpt>
      <trkpt lat="43.76784" lon="7.00912">
        <ele>1008.8</ele>
        <time>2017-09-11T08:52:57Z</time>
      </trkpt>
      <trkpt lat="43.76783" lon="7.00905">
        <ele>1008</ele>
        <time>2017-09-11T08:53:01Z</time>
      </trkpt>
      <trkpt lat="43.76785" lon="7.00898">
        <ele>1008</ele>
        <time>2017-09-11T08:53:04Z</time>
      </trkpt>
      <trkpt lat="43.76789" lon="7.00891">
        <ele>1006.3</ele>
        <time>2017-09-11T08:53:11Z</time>
      </trkpt>
      <trkpt lat="43.7679" lon="7.00883">
        <ele>1006.3</ele>
        <time>2017-09-11T08:53:15Z</time>
      </trkpt>
      <trkpt lat="43.76792" lon="7.00869">
        <ele>1004.9</ele>
        <time>2017-09-11T08:53:22Z</time>
      </trkpt>
      <trkpt lat="43.76793" lon="7.00854">
        <ele>1004.7</ele>
        <time>2017-09-11T08:53:32Z</time>
      </trkpt>
      <trkpt lat="43.76793" lon="7.00841">
        <ele>1004.7</ele>
        <time>2017-09-11T08:53:37Z</time>
      </trkpt>
      <trkpt lat="43.76792" lon="7.00827">
        <ele>1004.7</ele>
        <time>2017-09-11T08:53:44Z</time>
      </trkpt>
      <trkpt lat="43.76792" lon="7.00819">
        <ele>1004.7</ele>
        <time>2017-09-11T08:53:49Z</time>
      </trkpt>
      <trkpt lat="43.76792" lon="7.00805">
        <ele>1004.7</ele>
        <time>2017-09-11T08:53:54Z</time>
      </trkpt>
      <trkpt lat="43.76786" lon="7.00788">
        <ele>1005</ele>
        <time>2017-09-11T08:54:06Z</time>
      </trkpt>
      <trkpt lat="43.76783" lon="7.00783">
        <ele>1005.1</ele>
        <time>2017-09-11T08:54:09Z</time>
      </trkpt>
      <trkpt lat="43.76776" lon="7.00763">
        <ele>1005.8</ele>
        <time>2017-09-11T08:54:20Z</time>
      </trkpt>
      <trkpt lat="43.76773" lon="7.00757">
        <ele>1006.5</ele>
        <time>2017-09-11T08:54:24Z</time>
      </trkpt>
      <trkpt lat="43.76775" lon="7.0075">
        <ele>1006.5</ele>
        <time>2017-09-11T08:54:27Z</time>
      </trkpt>
      <trkpt lat="43.76779" lon="7.00732">
        <ele>1006.5</ele>
        <time>2017-09-11T08:54:37Z</time>
      </trkpt>
      <trkpt lat="43.76781" lon="7.00717">
        <ele>1006.5</ele>
        <time>2017-09-11T08:54:46Z</time>
      </trkpt>
      <trkpt lat="43.7678" lon="7.00704">
        <ele>1006.3</ele>
        <time>2017-09-11T08:54:54Z</time>
      </trkpt>
      <trkpt lat="43.76782" lon="7.0069">
        <ele>1004.6</ele>
        <time>2017-09-11T08:55:01Z</time>
      </trkpt>
      <trkpt lat="43.76786" lon="7.00684">
        <ele>1003.1</ele>
        <time>2017-09-11T08:55:05Z</time>
      </trkpt>
      <trkpt lat="43.76796" lon="7.0068">
        <ele>995.3</ele>
        <time>2017-09-11T08:56:10Z</time>
      </trkpt>
      <trkpt lat="43.76805" lon="7.00673">
        <ele>995.3</ele>
        <time>2017-09-11T08:56:21Z</time>
      </trkpt>
      <trkpt lat="43.76799" lon="7.00667">
        <ele>994.8</ele>
        <time>2017-09-11T08:56:38Z</time>
      </trkpt>
      <trkpt lat="43.76793" lon="7.00655">
        <ele>994.1</ele>
        <time>2017-09-11T08:56:54Z</time>
      </trkpt>
      <trkpt lat="43.76782" lon="7.0065">
        <ele>993.5</ele>
        <time>2017-09-11T08:57:06Z</time>
      </trkpt>
      <trkpt lat="43.76772" lon="7.00647">
        <ele>993.2</ele>
        <time>2017-09-11T08:57:18Z</time>
      </trkpt>
      <trkpt lat="43.76764" lon="7.00642">
        <ele>992.6</ele>
        <time>2017-09-11T08:57:41Z</time>
      </trkpt>
      <trkpt lat="43.76759" lon="7.00642">
        <ele>993.5</ele>
        <time>2017-09-11T08:58:08Z</time>
      </trkpt>
      <trkpt lat="43.76768" lon="7.0064">
        <ele>993.7</ele>
        <time>2017-09-11T09:00:26Z</time>
      </trkpt>
      <trkpt lat="43.76777" lon="7.00631">
        <ele>993.6</ele>
        <time>2017-09-11T09:00:40Z</time>
      </trkpt>
      <trkpt lat="43.76782" lon="7.00633">
        <ele>993.4</ele>
        <time>2017-09-11T09:00:50Z</time>
      </trkpt>
      <trkpt lat="43.7679" lon="7.00641">
        <ele>993</ele>
        <time>2017-09-11T09:01:07Z</time>
      </trkpt>
      <trkpt lat="43.7679" lon="7.00628">
        <ele>991.2</ele>
        <time>2017-09-11T09:01:58Z</time>
      </trkpt>
      <trkpt lat="43.76789" lon="7.00621">
        <ele>991.2</ele>
        <time>2017-09-11T09:02:04Z</time>
      </trkpt>
      <trkpt lat="43.76783" lon="7.00619">
        <ele>991.2</ele>
        <time>2017-09-11T09:02:12Z</time>
      </trkpt>
      <trkpt lat="43.76773" lon="7.00624">
        <ele>991.4</ele>
        <time>2017-09-11T09:02:25Z</time>
      </trkpt>
      <trkpt lat="43.76765" lon="7.00632">
        <ele>991.5</ele>
        <time>2017-09-11T09:02:40Z</time>
      </trkpt>
      <trkpt lat="43.76762" lon="7.00636">
        <ele>991.6</ele>
        <time>2017-09-11T09:02:43Z</time>
      </trkpt>
      <trkpt lat="43.76761" lon="7.00644">
        <ele>993.1</ele>
        <time>2017-09-11T09:03:25Z</time>
      </trkpt>
      <trkpt lat="43.76758" lon="7.00632">
        <ele>993.1</ele>
        <time>2017-09-11T09:04:30Z</time>
      </trkpt>
      <trkpt lat="43.76763" lon="7.00633">
        <ele>993</ele>
        <time>2017-09-11T09:06:01Z</time>
      </trkpt>
      <trkpt lat="43.76765" lon="7.00646">
        <ele>993</ele>
        <time>2017-09-11T09:06:24Z</time>
      </trkpt>
      <trkpt lat="43.76769" lon="7.0064">
        <ele>993</ele>
        <time>2017-09-11T09:06:36Z</time>
      </trkpt>
      <trkpt lat="43.76764" lon="7.00623">
        <ele>992.9</ele>
        <time>2017-09-11T09:06:56Z</time>
      </trkpt>
      <trkpt lat="43.76765" lon="7.00631">
        <ele>992.7</ele>
        <time>2017-09-11T09:07:13Z</time>
      </trkpt>
      <trkpt lat="43.76759" lon="7.00636">
        <ele>993.8</ele>
        <time>2017-09-11T09:07:57Z</time>
      </trkpt>
      <trkpt lat="43.7676" lon="7.0063">
        <ele>993.8</ele>
        <time>2017-09-11T09:08:19Z</time>
      </trkpt>
      <trkpt lat="43.76759" lon="7.00643">
        <ele>993.8</ele>
        <time>2017-09-11T09:08:47Z</time>
      </trkpt>
      <trkpt lat="43.76763" lon="7.00647">
        <ele>994.1</ele>
        <time>2017-09-11T09:09:34Z</time>
      </trkpt>
      <trkpt lat="43.76771" lon="7.00653">
        <ele>994.1</ele>
        <time>2017-09-11T09:09:55Z</time>
      </trkpt>
      <trkpt lat="43.76789" lon="7.00654">
        <ele>993.4</ele>
        <time>2017-09-11T09:10:12Z</time>
      </trkpt>
      <trkpt lat="43.76796" lon="7.00655">
        <ele>992.8</ele>
        <time>2017-09-11T09:10:21Z</time>
      </trkpt>
      <trkpt lat="43.76801" lon="7.00658">
        <ele>992.8</ele>
        <time>2017-09-11T09:10:25Z</time>
      </trkpt>
      <trkpt lat="43.76817" lon="7.00668">
        <ele>992.7</ele>
        <time>2017-09-11T09:10:40Z</time>
      </trkpt>
      <trkpt lat="43.76826" lon="7.00674">
        <ele>992.8</ele>
        <time>2017-09-11T09:10:50Z</time>
      </trkpt>
      <trkpt lat="43.76834" lon="7.00671">
        <ele>992.8</ele>
        <time>2017-09-11T09:11:02Z</time>
      </trkpt>
      <trkpt lat="43.76843" lon="7.00676">
        <ele>992.8</ele>
        <time>2017-09-11T09:11:11Z</time>
      </trkpt>
      <trkpt lat="43.76852" lon="7.00678">
        <ele>992.8</ele>
        <time>2017-09-11T09:11:17Z</time>
      </trkpt>
      <trkpt lat="43.76861" lon="7.00677">
        <ele>992.4</ele>
        <time>2017-09-11T09:11:25Z</time>
      </trkpt>
      <trkpt lat="43.76874" lon="7.00668">
        <ele>992.1</ele>
        <time>2017-09-11T09:11:33Z</time>
      </trkpt>
      <trkpt lat="43.76882" lon="7.00663">
        <ele>991.7</ele>
        <time>2017-09-11T09:11:39Z</time>
      </trkpt>
      <trkpt lat="43.76889" lon="7.00651">
        <ele>991.3</ele>
        <time>2017-09-11T09:11:48Z</time>
      </trkpt>
      <trkpt lat="43.76891" lon="7.00645">
        <ele>990.9</ele>
        <time>2017-09-11T09:11:53Z</time>
      </trkpt>
      <trkpt lat="43.76883" lon="7.0062">
        <ele>989</ele>
        <time>2017-09-11T09:12:10Z</time>
      </trkpt>
      <trkpt lat="43.76874" lon="7.00598">
        <ele>987.2</ele>
        <time>2017-09-11T09:12:23Z</time>
      </trkpt>
      <trkpt lat="43.76857" lon="7.00582">
        <ele>985.1</ele>
        <time>2017-09-11T09:12:36Z</time>
      </trkpt>
      <trkpt lat="43.7685" lon="7.00572">
        <ele>983.4</ele>
        <time>2017-09-11T09:12:44Z</time>
      </trkpt>
      <trkpt lat="43.76852" lon="7.00566">
        <ele>982.3</ele>
        <time>2017-09-11T09:12:49Z</time>
      </trkpt>
      <trkpt lat="43.76869" lon="7.00567">
        <ele>979.4</ele>
        <time>2017-09-11T09:13:09Z</time>
      </trkpt>
      <trkpt lat="43.76883" lon="7.00566">
        <ele>977.7</ele>
        <time>2017-09-11T09:13:19Z</time>
      </trkpt>
      <trkpt lat="43.76895" lon="7.00576">
        <ele>975</ele>
        <time>2017-09-11T09:13:32Z</time>
      </trkpt>
      <trkpt lat="43.76901" lon="7.00585">
        <ele>973.5</ele>
        <time>2017-09-11T09:13:38Z</time>
      </trkpt>
      <trkpt lat="43.76915" lon="7.00605">
        <ele>971.7</ele>
        <time>2017-09-11T09:13:53Z</time>
      </trkpt>
      <trkpt lat="43.76923" lon="7.00629">
        <ele>970.6</ele>
        <time>2017-09-11T09:14:05Z</time>
      </trkpt>
      <trkpt lat="43.76933" lon="7.00651">
        <ele>967.9</ele>
        <time>2017-09-11T09:14:25Z</time>
      </trkpt>
      <trkpt lat="43.76941" lon="7.00674">
        <ele>966.3</ele>
        <time>2017-09-11T09:14:35Z</time>
      </trkpt>
      <trkpt lat="43.76949" lon="7.00698">
        <ele>964.2</ele>
        <time>2017-09-11T09:14:51Z</time>
      </trkpt>
      <trkpt lat="43.76964" lon="7.00715">
        <ele>960.6</ele>
        <time>2017-09-11T09:15:11Z</time>
      </trkpt>
      <trkpt lat="43.76978" lon="7.00732">
        <ele>959.8</ele>
        <time>2017-09-11T09:15:28Z</time>
      </trkpt>
      <trkpt lat="43.7699" lon="7.00751">
        <ele>959.8</ele>
        <time>2017-09-11T09:15:41Z</time>
      </trkpt>
      <trkpt lat="43.76997" lon="7.00775">
        <ele>961.8</ele>
        <time>2017-09-11T09:15:58Z</time>
      </trkpt>
      <trkpt lat="43.76997" lon="7.008">
        <ele>963.9</ele>
        <time>2017-09-11T09:16:16Z</time>
      </trkpt>
      <trkpt lat="43.77007" lon="7.00821">
        <ele>965</ele>
        <time>2017-09-11T09:16:28Z</time>
      </trkpt>
      <trkpt lat="43.77016" lon="7.00843">
        <ele>966.9</ele>
        <time>2017-09-11T09:16:46Z</time>
      </trkpt>
      <trkpt lat="43.77024" lon="7.00868">
        <ele>968.1</ele>
        <time>2017-09-11T09:16:59Z</time>
      </trkpt>
      <trkpt lat="43.77028" lon="7.00896">
        <ele>970.2</ele>
        <time>2017-09-11T09:17:15Z</time>
      </trkpt>
      <trkpt lat="43.77036" lon="7.00921">
        <ele>970.4</ele>
        <time>2017-09-11T09:17:25Z</time>
      </trkpt>
      <trkpt lat="43.77042" lon="7.00947">
        <ele>970.7</ele>
        <time>2017-09-11T09:17:41Z</time>
      </trkpt>
      <trkpt lat="43.77044" lon="7.00974">
        <ele>971.4</ele>
        <time>2017-09-11T09:17:53Z</time>
      </trkpt>
      <trkpt lat="43.77051" lon="7.00994">
        <ele>972.3</ele>
        <time>2017-09-11T09:18:12Z</time>
      </trkpt>
      <trkpt lat="43.77048" lon="7.01022">
        <ele>973.4</ele>
        <time>2017-09-11T09:18:28Z</time>
      </trkpt>
      <trkpt lat="43.77052" lon="7.01047">
        <ele>976</ele>
        <time>2017-09-11T09:18:46Z</time>
      </trkpt>
      <trkpt lat="43.77057" lon="7.01071">
        <ele>977.7</ele>
        <time>2017-09-11T09:19:00Z</time>
      </trkpt>
      <trkpt lat="43.77056" lon="7.01096">
        <ele>979.8</ele>
        <time>2017-09-11T09:19:15Z</time>
      </trkpt>
      <trkpt lat="43.77062" lon="7.01121">
        <ele>982</ele>
        <time>2017-09-11T09:19:32Z</time>
      </trkpt>
      <trkpt lat="43.77072" lon="7.01133">
        <ele>985.5</ele>
        <time>2017-09-11T09:19:52Z</time>
      </trkpt>
      <trkpt lat="43.77077" lon="7.01158">
        <ele>990.4</ele>
        <time>2017-09-11T09:20:20Z</time>
      </trkpt>
      <trkpt lat="43.77094" lon="7.01164">
        <ele>993.3</ele>
        <time>2017-09-11T09:20:36Z</time>
      </trkpt>
      <trkpt lat="43.77113" lon="7.01172">
        <ele>996.4</ele>
        <time>2017-09-11T09:20:55Z</time>
      </trkpt>
      <trkpt lat="43.77128" lon="7.01186">
        <ele>998.3</ele>
        <time>2017-09-11T09:21:11Z</time>
      </trkpt>
      <trkpt lat="43.77138" lon="7.01208">
        <ele>1000.9</ele>
        <time>2017-09-11T09:21:30Z</time>
      </trkpt>
      <trkpt lat="43.7714" lon="7.01233">
        <ele>1003.6</ele>
        <time>2017-09-11T09:21:50Z</time>
      </trkpt>
      <trkpt lat="43.77139" lon="7.01258">
        <ele>1006.2</ele>
        <time>2017-09-11T09:22:08Z</time>
      </trkpt>
      <trkpt lat="43.77141" lon="7.01284">
        <ele>1008.7</ele>
        <time>2017-09-11T09:22:27Z</time>
      </trkpt>
      <trkpt lat="43.77154" lon="7.01303">
        <ele>1010</ele>
        <time>2017-09-11T09:22:44Z</time>
      </trkpt>
      <trkpt lat="43.77157" lon="7.01329">
        <ele>1011.6</ele>
        <time>2017-09-11T09:22:58Z</time>
      </trkpt>
      <trkpt lat="43.77156" lon="7.01354">
        <ele>1012.8</ele>
        <time>2017-09-11T09:23:13Z</time>
      </trkpt>
      <trkpt lat="43.7716" lon="7.01366">
        <ele>1014</ele>
        <time>2017-09-11T09:23:19Z</time>
      </trkpt>
      <trkpt lat="43.77165" lon="7.01369">
        <ele>1014.8</ele>
        <time>2017-09-11T09:23:25Z</time>
      </trkpt>
      <trkpt lat="43.77166" lon="7.01375">
        <ele>1015.4</ele>
        <time>2017-09-11T09:23:31Z</time>
      </trkpt>
      <trkpt lat="43.77173" lon="7.01377">
        <ele>1015.8</ele>
        <time>2017-09-11T09:23:38Z</time>
      </trkpt>
      <trkpt lat="43.77169" lon="7.01374">
        <ele>1017</ele>
        <time>2017-09-11T09:25:04Z</time>
      </trkpt>
      <trkpt lat="43.77174" lon="7.01375">
        <ele>1016.8</ele>
        <time>2017-09-11T09:26:19Z</time>
      </trkpt>
      <trkpt lat="43.77189" lon="7.01392">
        <ele>1016.8</ele>
        <time>2017-09-11T09:26:34Z</time>
      </trkpt>
      <trkpt lat="43.77195" lon="7.01416">
        <ele>1017.1</ele>
        <time>2017-09-11T09:26:54Z</time>
      </trkpt>
      <trkpt lat="43.772" lon="7.01427">
        <ele>1017.5</ele>
        <time>2017-09-11T09:27:01Z</time>
      </trkpt>
      <trkpt lat="43.77209" lon="7.01442">
        <ele>1018.5</ele>
        <time>2017-09-11T09:27:15Z</time>
      </trkpt>
      <trkpt lat="43.77215" lon="7.01455">
        <ele>1019.3</ele>
        <time>2017-09-11T09:27:23Z</time>
      </trkpt>
      <trkpt lat="43.77232" lon="7.01465">
        <ele>1019.5</ele>
        <time>2017-09-11T09:27:35Z</time>
      </trkpt>
      <trkpt lat="43.77245" lon="7.01481">
        <ele>1020.3</ele>
        <time>2017-09-11T09:27:54Z</time>
      </trkpt>
      <trkpt lat="43.77251" lon="7.01491">
        <ele>1020.8</ele>
        <time>2017-09-11T09:28:00Z</time>
      </trkpt>
      <trkpt lat="43.77254" lon="7.01499">
        <ele>1022.2</ele>
        <time>2017-09-11T09:28:06Z</time>
      </trkpt>
      <trkpt lat="43.77254" lon="7.01505">
        <ele>1023</ele>
        <time>2017-09-11T09:28:12Z</time>
      </trkpt>
      <trkpt lat="43.77259" lon="7.01517">
        <ele>1023.9</ele>
        <time>2017-09-11T09:28:19Z</time>
      </trkpt>
      <trkpt lat="43.77265" lon="7.01532">
        <ele>1025.6</ele>
        <time>2017-09-11T09:28:29Z</time>
      </trkpt>
      <trkpt lat="43.77273" lon="7.01542">
        <ele>1026.4</ele>
        <time>2017-09-11T09:28:37Z</time>
      </trkpt>
      <trkpt lat="43.77281" lon="7.01551">
        <ele>1027.2</ele>
        <time>2017-09-11T09:28:45Z</time>
      </trkpt>
      <trkpt lat="43.77283" lon="7.0156">
        <ele>1027.5</ele>
        <time>2017-09-11T09:28:49Z</time>
      </trkpt>
      <trkpt lat="43.77282" lon="7.01567">
        <ele>1027.6</ele>
        <time>2017-09-11T09:28:55Z</time>
      </trkpt>
      <trkpt lat="43.77279" lon="7.01573">
        <ele>1027.6</ele>
        <time>2017-09-11T09:28:59Z</time>
      </trkpt>
      <trkpt lat="43.77274" lon="7.01586">
        <ele>1027.7</ele>
        <time>2017-09-11T09:29:08Z</time>
      </trkpt>
      <trkpt lat="43.7727" lon="7.01592">
        <ele>1027.9</ele>
        <time>2017-09-11T09:29:13Z</time>
      </trkpt>
      <trkpt lat="43.77261" lon="7.01611">
        <ele>1028.7</ele>
        <time>2017-09-11T09:29:27Z</time>
      </trkpt>
      <trkpt lat="43.77259" lon="7.01618">
        <ele>1028.9</ele>
        <time>2017-09-11T09:29:31Z</time>
      </trkpt>
      <trkpt lat="43.77255" lon="7.01636">
        <ele>1028.9</ele>
        <time>2017-09-11T09:29:39Z</time>
      </trkpt>
      <trkpt lat="43.77253" lon="7.01644">
        <ele>1028.9</ele>
        <time>2017-09-11T09:29:44Z</time>
      </trkpt>
      <trkpt lat="43.7725" lon="7.01649">
        <ele>1028.9</ele>
        <time>2017-09-11T09:29:47Z</time>
      </trkpt>
      <trkpt lat="43.7724" lon="7.01664">
        <ele>1028.9</ele>
        <time>2017-09-11T09:29:57Z</time>
      </trkpt>
      <trkpt lat="43.77235" lon="7.01669">
        <ele>1028.8</ele>
        <time>2017-09-11T09:30:02Z</time>
      </trkpt>
      <trkpt lat="43.77222" lon="7.01678">
        <ele>1028.4</ele>
        <time>2017-09-11T09:30:09Z</time>
      </trkpt>
      <trkpt lat="43.77214" lon="7.01685">
        <ele>1027.8</ele>
        <time>2017-09-11T09:30:13Z</time>
      </trkpt>
      <trkpt lat="43.77211" lon="7.0169">
        <ele>1027.8</ele>
        <time>2017-09-11T09:30:17Z</time>
      </trkpt>
      <trkpt lat="43.772" lon="7.01701">
        <ele>1027</ele>
        <time>2017-09-11T09:30:25Z</time>
      </trkpt>
      <trkpt lat="43.77196" lon="7.01706">
        <ele>1025.7</ele>
        <time>2017-09-11T09:30:29Z</time>
      </trkpt>
      <trkpt lat="43.77193" lon="7.01713">
        <ele>1025.7</ele>
        <time>2017-09-11T09:30:33Z</time>
      </trkpt>
      <trkpt lat="43.77193" lon="7.01721">
        <ele>1024.5</ele>
        <time>2017-09-11T09:30:36Z</time>
      </trkpt>
      <trkpt lat="43.77199" lon="7.01728">
        <ele>1022.6</ele>
        <time>2017-09-11T09:30:43Z</time>
      </trkpt>
      <trkpt lat="43.77192" lon="7.01738">
        <ele>1021.7</ele>
        <time>2017-09-11T09:30:52Z</time>
      </trkpt>
      <trkpt lat="43.77187" lon="7.0175">
        <ele>1020.3</ele>
        <time>2017-09-11T09:30:59Z</time>
      </trkpt>
      <trkpt lat="43.77182" lon="7.01761">
        <ele>1018.7</ele>
        <time>2017-09-11T09:31:06Z</time>
      </trkpt>
      <trkpt lat="43.77182" lon="7.0178">
        <ele>1016.7</ele>
        <time>2017-09-11T09:31:16Z</time>
      </trkpt>
      <trkpt lat="43.7718" lon="7.01793">
        <ele>1014.6</ele>
        <time>2017-09-11T09:31:23Z</time>
      </trkpt>
      <trkpt lat="43.77182" lon="7.01808">
        <ele>1012.2</ele>
        <time>2017-09-11T09:31:33Z</time>
      </trkpt>
      <trkpt lat="43.77184" lon="7.0182">
        <ele>1010.8</ele>
        <time>2017-09-11T09:31:38Z</time>
      </trkpt>
      <trkpt lat="43.77184" lon="7.01833">
        <ele>1010.2</ele>
        <time>2017-09-11T09:31:46Z</time>
      </trkpt>
      <trkpt lat="43.7718" lon="7.01845">
        <ele>1008.1</ele>
        <time>2017-09-11T09:31:56Z</time>
      </trkpt>
      <trkpt lat="43.7717" lon="7.01862">
        <ele>1006</ele>
        <time>2017-09-11T09:32:07Z</time>
      </trkpt>
      <trkpt lat="43.7716" lon="7.01875">
        <ele>1003.6</ele>
        <time>2017-09-11T09:32:22Z</time>
      </trkpt>
      <trkpt lat="43.77154" lon="7.01892">
        <ele>1002.8</ele>
        <time>2017-09-11T09:32:29Z</time>
      </trkpt>
      <trkpt lat="43.77146" lon="7.01909">
        <ele>1002</ele>
        <time>2017-09-11T09:32:37Z</time>
      </trkpt>
      <trkpt lat="43.7714" lon="7.01919">
        <ele>1001.8</ele>
        <time>2017-09-11T09:32:45Z</time>
      </trkpt>
      <trkpt lat="43.77139" lon="7.01926">
        <ele>1001.6</ele>
        <time>2017-09-11T09:32:48Z</time>
      </trkpt>
      <trkpt lat="43.77135" lon="7.01939">
        <ele>1001.3</ele>
        <time>2017-09-11T09:32:55Z</time>
      </trkpt>
      <trkpt lat="43.77135" lon="7.01952">
        <ele>1001.1</ele>
        <time>2017-09-11T09:33:01Z</time>
      </trkpt>
      <trkpt lat="43.77132" lon="7.01971">
        <ele>1000.7</ele>
        <time>2017-09-11T09:33:11Z</time>
      </trkpt>
      <trkpt lat="43.77133" lon="7.01983">
        <ele>1000.4</ele>
        <time>2017-09-11T09:33:18Z</time>
      </trkpt>
      <trkpt lat="43.77125" lon="7.01991">
        <ele>1000.1</ele>
        <time>2017-09-11T09:33:25Z</time>
      </trkpt>
      <trkpt lat="43.77119" lon="7.01998">
        <ele>999.6</ele>
        <time>2017-09-11T09:33:30Z</time>
      </trkpt>
      <trkpt lat="43.77114" lon="7.02">
        <ele>999.6</ele>
        <time>2017-09-11T09:33:34Z</time>
      </trkpt>
      <trkpt lat="43.77107" lon="7.02007">
        <ele>998.9</ele>
        <time>2017-09-11T09:33:41Z</time>
      </trkpt>
      <trkpt lat="43.77095" lon="7.02019">
        <ele>998.7</ele>
        <time>2017-09-11T09:33:50Z</time>
      </trkpt>
      <trkpt lat="43.7709" lon="7.02023">
        <ele>998.7</ele>
        <time>2017-09-11T09:33:55Z</time>
      </trkpt>
      <trkpt lat="43.77086" lon="7.02026">
        <ele>998.7</ele>
        <time>2017-09-11T09:33:57Z</time>
      </trkpt>
      <trkpt lat="43.77081" lon="7.0203">
        <ele>998.7</ele>
        <time>2017-09-11T09:34:04Z</time>
      </trkpt>
      <trkpt lat="43.77079" lon="7.02036">
        <ele>998.7</ele>
        <time>2017-09-11T09:34:07Z</time>
      </trkpt>
      <trkpt lat="43.77076" lon="7.02049">
        <ele>998.7</ele>
        <time>2017-09-11T09:34:12Z</time>
      </trkpt>
      <trkpt lat="43.77073" lon="7.02069">
        <ele>998.9</ele>
        <time>2017-09-11T09:34:20Z</time>
      </trkpt>
      <trkpt lat="43.77072" lon="7.02089">
        <ele>999.2</ele>
        <time>2017-09-11T09:34:30Z</time>
      </trkpt>
      <trkpt lat="43.77073" lon="7.02108">
        <ele>999.9</ele>
        <time>2017-09-11T09:34:39Z</time>
      </trkpt>
      <trkpt lat="43.77076" lon="7.0213">
        <ele>1000</ele>
        <time>2017-09-11T09:34:49Z</time>
      </trkpt>
      <trkpt lat="43.77076" lon="7.02144">
        <ele>1000</ele>
        <time>2017-09-11T09:34:57Z</time>
      </trkpt>
      <trkpt lat="43.77074" lon="7.02157">
        <ele>999.9</ele>
        <time>2017-09-11T09:35:05Z</time>
      </trkpt>
      <trkpt lat="43.7707" lon="7.02162">
        <ele>999.3</ele>
        <time>2017-09-11T09:35:11Z</time>
      </trkpt>
      <trkpt lat="43.77063" lon="7.02165">
        <ele>999.3</ele>
        <time>2017-09-11T09:35:15Z</time>
      </trkpt>
      <trkpt lat="43.77055" lon="7.02168">
        <ele>998.5</ele>
        <time>2017-09-11T09:35:21Z</time>
      </trkpt>
      <trkpt lat="43.77051" lon="7.02173">
        <ele>998.4</ele>
        <time>2017-09-11T09:35:25Z</time>
      </trkpt>
      <trkpt lat="43.77046" lon="7.02175">
        <ele>998.4</ele>
        <time>2017-09-11T09:35:28Z</time>
      </trkpt>
      <trkpt lat="43.77038" lon="7.02181">
        <ele>998.4</ele>
        <time>2017-09-11T09:35:34Z</time>
      </trkpt>
      <trkpt lat="43.77028" lon="7.02189">
        <ele>998.2</ele>
        <time>2017-09-11T09:35:43Z</time>
      </trkpt>
      <trkpt lat="43.77025" lon="7.02209">
        <ele>998.1</ele>
        <time>2017-09-11T09:35:50Z</time>
      </trkpt>
      <trkpt lat="43.77022" lon="7.02225">
        <ele>997.9</ele>
        <time>2017-09-11T09:35:57Z</time>
      </trkpt>
      <trkpt lat="43.77018" lon="7.02238">
        <ele>997.9</ele>
        <time>2017-09-11T09:36:02Z</time>
      </trkpt>
      <trkpt lat="43.77014" lon="7.02257">
        <ele>997.6</ele>
        <time>2017-09-11T09:36:15Z</time>
      </trkpt>
      <trkpt lat="43.77011" lon="7.02265">
        <ele>997.2</ele>
        <time>2017-09-11T09:36:19Z</time>
      </trkpt>
      <trkpt lat="43.77003" lon="7.02281">
        <ele>996.3</ele>
        <time>2017-09-11T09:36:29Z</time>
      </trkpt>
      <trkpt lat="43.76994" lon="7.02306">
        <ele>995.6</ele>
        <time>2017-09-11T09:36:47Z</time>
      </trkpt>
      <trkpt lat="43.76977" lon="7.02325">
        <ele>995.6</ele>
        <time>2017-09-11T09:36:57Z</time>
      </trkpt>
      <trkpt lat="43.76967" lon="7.0234">
        <ele>995.7</ele>
        <time>2017-09-11T09:37:10Z</time>
      </trkpt>
      <trkpt lat="43.76965" lon="7.02353">
        <ele>998.8</ele>
        <time>2017-09-11T09:37:34Z</time>
      </trkpt>
      <trkpt lat="43.76962" lon="7.02359">
        <ele>999.9</ele>
        <time>2017-09-11T09:37:40Z</time>
      </trkpt>
      <trkpt lat="43.7696" lon="7.0238">
        <ele>1000.1</ele>
        <time>2017-09-11T09:37:53Z</time>
      </trkpt>
      <trkpt lat="43.76953" lon="7.02396">
        <ele>1000.2</ele>
        <time>2017-09-11T09:38:03Z</time>
      </trkpt>
      <trkpt lat="43.76948" lon="7.02409">
        <ele>1000.3</ele>
        <time>2017-09-11T09:38:10Z</time>
      </trkpt>
      <trkpt lat="43.76946" lon="7.02415">
        <ele>1000.4</ele>
        <time>2017-09-11T09:38:15Z</time>
      </trkpt>
      <trkpt lat="43.76943" lon="7.0242">
        <ele>1000.9</ele>
        <time>2017-09-11T09:38:20Z</time>
      </trkpt>
      <trkpt lat="43.7694" lon="7.02426">
        <ele>1001.4</ele>
        <time>2017-09-11T09:38:26Z</time>
      </trkpt>
      <trkpt lat="43.76935" lon="7.02431">
        <ele>1001.4</ele>
        <time>2017-09-11T09:38:30Z</time>
      </trkpt>
      <trkpt lat="43.76927" lon="7.02445">
        <ele>1002.5</ele>
        <time>2017-09-11T09:38:39Z</time>
      </trkpt>
      <trkpt lat="43.76922" lon="7.02458">
        <ele>1003.5</ele>
        <time>2017-09-11T09:38:50Z</time>
      </trkpt>
      <trkpt lat="43.76916" lon="7.02472">
        <ele>1005.2</ele>
        <time>2017-09-11T09:38:59Z</time>
      </trkpt>
      <trkpt lat="43.76913" lon="7.02491">
        <ele>1006.4</ele>
        <time>2017-09-11T09:39:08Z</time>
      </trkpt>
      <trkpt lat="43.76914" lon="7.02504">
        <ele>1007.2</ele>
        <time>2017-09-11T09:39:14Z</time>
      </trkpt>
      <trkpt lat="43.76917" lon="7.02524">
        <ele>1008.5</ele>
        <time>2017-09-11T09:39:25Z</time>
      </trkpt>
      <trkpt lat="43.76915" lon="7.02539">
        <ele>1009.2</ele>
        <time>2017-09-11T09:39:29Z</time>
      </trkpt>
      <trkpt lat="43.76912" lon="7.0256">
        <ele>1011.2</ele>
        <time>2017-09-11T09:39:49Z</time>
      </trkpt>
      <trkpt lat="43.76911" lon="7.02574">
        <ele>1012.3</ele>
        <time>2017-09-11T09:39:57Z</time>
      </trkpt>
      <trkpt lat="43.7691" lon="7.02593">
        <ele>1013.5</ele>
        <time>2017-09-11T09:40:09Z</time>
      </trkpt>
      <trkpt lat="43.76908" lon="7.02606">
        <ele>1014.2</ele>
        <time>2017-09-11T09:40:18Z</time>
      </trkpt>
      <trkpt lat="43.76902" lon="7.02616">
        <ele>1015.4</ele>
        <time>2017-09-11T09:40:27Z</time>
      </trkpt>
      <trkpt lat="43.76897" lon="7.02628">
        <ele>1016.9</ele>
        <time>2017-09-11T09:40:34Z</time>
      </trkpt>
      <trkpt lat="43.76889" lon="7.02639">
        <ele>1018.2</ele>
        <time>2017-09-11T09:40:44Z</time>
      </trkpt>
      <trkpt lat="43.76884" lon="7.0265">
        <ele>1019.3</ele>
        <time>2017-09-11T09:40:51Z</time>
      </trkpt>
      <trkpt lat="43.76878" lon="7.02667">
        <ele>1020.1</ele>
        <time>2017-09-11T09:41:01Z</time>
      </trkpt>
      <trkpt lat="43.76874" lon="7.02672">
        <ele>1020.5</ele>
        <time>2017-09-11T09:41:04Z</time>
      </trkpt>
      <trkpt lat="43.76873" lon="7.02678">
        <ele>1020.5</ele>
        <time>2017-09-11T09:41:07Z</time>
      </trkpt>
      <trkpt lat="43.7687" lon="7.02691">
        <ele>1021.3</ele>
        <time>2017-09-11T09:41:15Z</time>
      </trkpt>
      <trkpt lat="43.76863" lon="7.02701">
        <ele>1021.8</ele>
        <time>2017-09-11T09:41:22Z</time>
      </trkpt>
      <trkpt lat="43.7686" lon="7.02707">
        <ele>1021.9</ele>
        <time>2017-09-11T09:41:26Z</time>
      </trkpt>
      <trkpt lat="43.76859" lon="7.02714">
        <ele>1021.9</ele>
        <time>2017-09-11T09:41:31Z</time>
      </trkpt>
      <trkpt lat="43.76854" lon="7.02724">
        <ele>1021.9</ele>
        <time>2017-09-11T09:41:38Z</time>
      </trkpt>
      <trkpt lat="43.76851" lon="7.02732">
        <ele>1021.9</ele>
        <time>2017-09-11T09:41:42Z</time>
      </trkpt>
      <trkpt lat="43.76847" lon="7.02737">
        <ele>1021.9</ele>
        <time>2017-09-11T09:41:47Z</time>
      </trkpt>
      <trkpt lat="43.76839" lon="7.02745">
        <ele>1021.7</ele>
        <time>2017-09-11T09:41:55Z</time>
      </trkpt>
      <trkpt lat="43.76837" lon="7.02751">
        <ele>1021.7</ele>
        <time>2017-09-11T09:41:59Z</time>
      </trkpt>
      <trkpt lat="43.76829" lon="7.02763">
        <ele>1021.1</ele>
        <time>2017-09-11T09:42:06Z</time>
      </trkpt>
      <trkpt lat="43.76825" lon="7.02783">
        <ele>1019</ele>
        <time>2017-09-11T09:42:19Z</time>
      </trkpt>
      <trkpt lat="43.76821" lon="7.02799">
        <ele>1018</ele>
        <time>2017-09-11T09:42:27Z</time>
      </trkpt>
      <trkpt lat="43.76818" lon="7.02812">
        <ele>1017.6</ele>
        <time>2017-09-11T09:42:32Z</time>
      </trkpt>
      <trkpt lat="43.76815" lon="7.0283">
        <ele>1016</ele>
        <time>2017-09-11T09:42:44Z</time>
      </trkpt>
      <trkpt lat="43.76807" lon="7.02844">
        <ele>1014.9</ele>
        <time>2017-09-11T09:42:52Z</time>
      </trkpt>
      <trkpt lat="43.768" lon="7.02853">
        <ele>1014.1</ele>
        <time>2017-09-11T09:42:58Z</time>
      </trkpt>
      <trkpt lat="43.76796" lon="7.02859">
        <ele>1013.3</ele>
        <time>2017-09-11T09:43:02Z</time>
      </trkpt>
      <trkpt lat="43.7679" lon="7.02878">
        <ele>1012.3</ele>
        <time>2017-09-11T09:43:12Z</time>
      </trkpt>
      <trkpt lat="43.76785" lon="7.02898">
        <ele>1010.9</ele>
        <time>2017-09-11T09:43:23Z</time>
      </trkpt>
      <trkpt lat="43.7678" lon="7.0291">
        <ele>1009.3</ele>
        <time>2017-09-11T09:43:33Z</time>
      </trkpt>
      <trkpt lat="43.76776" lon="7.02923">
        <ele>1008.4</ele>
        <time>2017-09-11T09:43:39Z</time>
      </trkpt>
      <trkpt lat="43.76774" lon="7.02928">
        <ele>1008.1</ele>
        <time>2017-09-11T09:43:43Z</time>
      </trkpt>
      <trkpt lat="43.76768" lon="7.02947">
        <ele>1007.3</ele>
        <time>2017-09-11T09:43:52Z</time>
      </trkpt>
      <trkpt lat="43.76762" lon="7.02962">
        <ele>1006.6</ele>
        <time>2017-09-11T09:44:00Z</time>
      </trkpt>
      <trkpt lat="43.7676" lon="7.02976">
        <ele>1005.7</ele>
        <time>2017-09-11T09:44:08Z</time>
      </trkpt>
      <trkpt lat="43.76755" lon="7.02994">
        <ele>1004.8</ele>
        <time>2017-09-11T09:44:20Z</time>
      </trkpt>
      <trkpt lat="43.7675" lon="7.03014">
        <ele>1004</ele>
        <time>2017-09-11T09:44:27Z</time>
      </trkpt>
      <trkpt lat="43.76745" lon="7.03034">
        <ele>1002.8</ele>
        <time>2017-09-11T09:44:37Z</time>
      </trkpt>
      <trkpt lat="43.76739" lon="7.03051">
        <ele>1001.9</ele>
        <time>2017-09-11T09:44:47Z</time>
      </trkpt>
      <trkpt lat="43.76734" lon="7.03065">
        <ele>1001.2</ele>
        <time>2017-09-11T09:44:55Z</time>
      </trkpt>
      <trkpt lat="43.76722" lon="7.03087">
        <ele>1000.4</ele>
        <time>2017-09-11T09:45:09Z</time>
      </trkpt>
      <trkpt lat="43.76713" lon="7.03104">
        <ele>1000</ele>
        <time>2017-09-11T09:45:19Z</time>
      </trkpt>
      <trkpt lat="43.7671" lon="7.03115">
        <ele>999.9</ele>
        <time>2017-09-11T09:45:26Z</time>
      </trkpt>
      <trkpt lat="43.76702" lon="7.03133">
        <ele>999.8</ele>
        <time>2017-09-11T09:45:35Z</time>
      </trkpt>
      <trkpt lat="43.76694" lon="7.03148">
        <ele>999.6</ele>
        <time>2017-09-11T09:45:44Z</time>
      </trkpt>
      <trkpt lat="43.76685" lon="7.03163">
        <ele>999</ele>
        <time>2017-09-11T09:45:56Z</time>
      </trkpt>
      <trkpt lat="43.76683" lon="7.0317">
        <ele>998.6</ele>
        <time>2017-09-11T09:45:58Z</time>
      </trkpt>
      <trkpt lat="43.76682" lon="7.03179">
        <ele>998.6</ele>
        <time>2017-09-11T09:46:01Z</time>
      </trkpt>
      <trkpt lat="43.76678" lon="7.03196">
        <ele>997.5</ele>
        <time>2017-09-11T09:46:11Z</time>
      </trkpt>
      <trkpt lat="43.76672" lon="7.03207">
        <ele>996.8</ele>
        <time>2017-09-11T09:46:17Z</time>
      </trkpt>
      <trkpt lat="43.76664" lon="7.03217">
        <ele>996.1</ele>
        <time>2017-09-11T09:46:24Z</time>
      </trkpt>
      <trkpt lat="43.76665" lon="7.03224">
        <ele>996.1</ele>
        <time>2017-09-11T09:46:28Z</time>
      </trkpt>
      <trkpt lat="43.76663" lon="7.0323">
        <ele>995.1</ele>
        <time>2017-09-11T09:46:31Z</time>
      </trkpt>
      <trkpt lat="43.76659" lon="7.03238">
        <ele>995.1</ele>
        <time>2017-09-11T09:46:34Z</time>
      </trkpt>
      <trkpt lat="43.76648" lon="7.0325">
        <ele>993.6</ele>
        <time>2017-09-11T09:46:42Z</time>
      </trkpt>
      <trkpt lat="43.76646" lon="7.03263">
        <ele>992.7</ele>
        <time>2017-09-11T09:46:47Z</time>
      </trkpt>
      <trkpt lat="43.76645" lon="7.03276">
        <ele>991.2</ele>
        <time>2017-09-11T09:46:52Z</time>
      </trkpt>
      <trkpt lat="43.7664" lon="7.03295">
        <ele>988.5</ele>
        <time>2017-09-11T09:47:02Z</time>
      </trkpt>
      <trkpt lat="43.76637" lon="7.0331">
        <ele>987.9</ele>
        <time>2017-09-11T09:47:07Z</time>
      </trkpt>
      <trkpt lat="43.76631" lon="7.03325">
        <ele>987</ele>
        <time>2017-09-11T09:47:16Z</time>
      </trkpt>
      <trkpt lat="43.76625" lon="7.03335">
        <ele>986.5</ele>
        <time>2017-09-11T09:47:20Z</time>
      </trkpt>
      <trkpt lat="43.76618" lon="7.03347">
        <ele>985.8</ele>
        <time>2017-09-11T09:47:28Z</time>
      </trkpt>
      <trkpt lat="43.76608" lon="7.03355">
        <ele>985</ele>
        <time>2017-09-11T09:47:35Z</time>
      </trkpt>
      <trkpt lat="43.766" lon="7.03364">
        <ele>984.6</ele>
        <time>2017-09-11T09:47:41Z</time>
      </trkpt>
      <trkpt lat="43.76592" lon="7.03376">
        <ele>984.4</ele>
        <time>2017-09-11T09:47:49Z</time>
      </trkpt>
      <trkpt lat="43.76587" lon="7.03388">
        <ele>984</ele>
        <time>2017-09-11T09:47:56Z</time>
      </trkpt>
      <trkpt lat="43.76581" lon="7.03402">
        <ele>983.6</ele>
        <time>2017-09-11T09:48:02Z</time>
      </trkpt>
      <trkpt lat="43.76577" lon="7.03416">
        <ele>983.4</ele>
        <time>2017-09-11T09:48:08Z</time>
      </trkpt>
      <trkpt lat="43.76571" lon="7.03433">
        <ele>983.2</ele>
        <time>2017-09-11T09:48:17Z</time>
      </trkpt>
      <trkpt lat="43.76562" lon="7.0345">
        <ele>982.6</ele>
        <time>2017-09-11T09:48:26Z</time>
      </trkpt>
      <trkpt lat="43.76558" lon="7.03462">
        <ele>982.3</ele>
        <time>2017-09-11T09:48:31Z</time>
      </trkpt>
      <trkpt lat="43.76552" lon="7.03479">
        <ele>981.5</ele>
        <time>2017-09-11T09:48:40Z</time>
      </trkpt>
      <trkpt lat="43.76549" lon="7.03491">
        <ele>981.3</ele>
        <time>2017-09-11T09:48:45Z</time>
      </trkpt>
      <trkpt lat="43.76551" lon="7.03511">
        <ele>980.1</ele>
        <time>2017-09-11T09:48:54Z</time>
      </trkpt>
      <trkpt lat="43.76548" lon="7.03527">
        <ele>979.1</ele>
        <time>2017-09-11T09:49:01Z</time>
      </trkpt>
      <trkpt lat="43.76545" lon="7.03535">
        <ele>978.6</ele>
        <time>2017-09-11T09:49:04Z</time>
      </trkpt>
      <trkpt lat="43.76542" lon="7.0354">
        <ele>978.3</ele>
        <time>2017-09-11T09:49:08Z</time>
      </trkpt>
      <trkpt lat="43.76536" lon="7.0355">
        <ele>977.9</ele>
        <time>2017-09-11T09:49:13Z</time>
      </trkpt>
      <trkpt lat="43.76528" lon="7.03566">
        <ele>977.4</ele>
        <time>2017-09-11T09:49:23Z</time>
      </trkpt>
      <trkpt lat="43.7652" lon="7.03582">
        <ele>976.6</ele>
        <time>2017-09-11T09:49:31Z</time>
      </trkpt>
      <trkpt lat="43.76513" lon="7.036">
        <ele>976.3</ele>
        <time>2017-09-11T09:49:40Z</time>
      </trkpt>
      <trkpt lat="43.76505" lon="7.03619">
        <ele>976.1</ele>
        <time>2017-09-11T09:49:50Z</time>
      </trkpt>
      <trkpt lat="43.76501" lon="7.03631">
        <ele>975.7</ele>
        <time>2017-09-11T09:49:57Z</time>
      </trkpt>
      <trkpt lat="43.765" lon="7.0364">
        <ele>975.4</ele>
        <time>2017-09-11T09:50:01Z</time>
      </trkpt>
      <trkpt lat="43.76502" lon="7.03646">
        <ele>975.4</ele>
        <time>2017-09-11T09:50:03Z</time>
      </trkpt>
      <trkpt lat="43.76504" lon="7.03665">
        <ele>975.1</ele>
        <time>2017-09-11T09:50:11Z</time>
      </trkpt>
      <trkpt lat="43.76504" lon="7.03684">
        <ele>974.9</ele>
        <time>2017-09-11T09:50:18Z</time>
      </trkpt>
      <trkpt lat="43.76499" lon="7.03702">
        <ele>974.5</ele>
        <time>2017-09-11T09:50:28Z</time>
      </trkpt>
      <trkpt lat="43.76494" lon="7.03715">
        <ele>974.4</ele>
        <time>2017-09-11T09:50:33Z</time>
      </trkpt>
      <trkpt lat="43.76492" lon="7.03736">
        <ele>974</ele>
        <time>2017-09-11T09:50:40Z</time>
      </trkpt>
      <trkpt lat="43.76491" lon="7.03746">
        <ele>973.3</ele>
        <time>2017-09-11T09:50:44Z</time>
      </trkpt>
      <trkpt lat="43.76492" lon="7.03754">
        <ele>973.3</ele>
        <time>2017-09-11T09:50:47Z</time>
      </trkpt>
      <trkpt lat="43.76492" lon="7.03764">
        <ele>972.1</ele>
        <time>2017-09-11T09:50:53Z</time>
      </trkpt>
      <trkpt lat="43.7649" lon="7.03772">
        <ele>972.1</ele>
        <time>2017-09-11T09:50:57Z</time>
      </trkpt>
      <trkpt lat="43.76488" lon="7.03784">
        <ele>971.1</ele>
        <time>2017-09-11T09:51:03Z</time>
      </trkpt>
      <trkpt lat="43.76479" lon="7.03807">
        <ele>970.3</ele>
        <time>2017-09-11T09:51:12Z</time>
      </trkpt>
      <trkpt lat="43.7647" lon="7.03823">
        <ele>969.2</ele>
        <time>2017-09-11T09:51:21Z</time>
      </trkpt>
      <trkpt lat="43.76464" lon="7.03833">
        <ele>968.5</ele>
        <time>2017-09-11T09:51:27Z</time>
      </trkpt>
      <trkpt lat="43.7646" lon="7.03838">
        <ele>968</ele>
        <time>2017-09-11T09:51:31Z</time>
      </trkpt>
      <trkpt lat="43.76448" lon="7.03841">
        <ele>967.6</ele>
        <time>2017-09-11T09:51:40Z</time>
      </trkpt>
      <trkpt lat="43.7643" lon="7.03842">
        <ele>967.5</ele>
        <time>2017-09-11T09:51:51Z</time>
      </trkpt>
      <trkpt lat="43.76412" lon="7.03848">
        <ele>967.4</ele>
        <time>2017-09-11T09:52:01Z</time>
      </trkpt>
      <trkpt lat="43.76399" lon="7.03851">
        <ele>967.3</ele>
        <time>2017-09-11T09:52:09Z</time>
      </trkpt>
      <trkpt lat="43.76393" lon="7.03853">
        <ele>967.3</ele>
        <time>2017-09-11T09:52:12Z</time>
      </trkpt>
      <trkpt lat="43.76388" lon="7.03859">
        <ele>967.3</ele>
        <time>2017-09-11T09:52:15Z</time>
      </trkpt>
      <trkpt lat="43.76376" lon="7.03872">
        <ele>967.3</ele>
        <time>2017-09-11T09:52:24Z</time>
      </trkpt>
      <trkpt lat="43.76368" lon="7.03893">
        <ele>967.2</ele>
        <time>2017-09-11T09:52:34Z</time>
      </trkpt>
      <trkpt lat="43.7636" lon="7.03909">
        <ele>966.9</ele>
        <time>2017-09-11T09:52:42Z</time>
      </trkpt>
      <trkpt lat="43.76357" lon="7.03922">
        <ele>966.8</ele>
        <time>2017-09-11T09:52:49Z</time>
      </trkpt>
      <trkpt lat="43.76348" lon="7.03937">
        <ele>966.7</ele>
        <time>2017-09-11T09:52:57Z</time>
      </trkpt>
      <trkpt lat="43.76337" lon="7.03947">
        <ele>966.6</ele>
        <time>2017-09-11T09:53:07Z</time>
      </trkpt>
      <trkpt lat="43.76325" lon="7.03961">
        <ele>966.4</ele>
        <time>2017-09-11T09:53:16Z</time>
      </trkpt>
      <trkpt lat="43.76321" lon="7.03968">
        <ele>966.3</ele>
        <time>2017-09-11T09:53:20Z</time>
      </trkpt>
      <trkpt lat="43.76317" lon="7.0397">
        <ele>966.3</ele>
        <time>2017-09-11T09:53:23Z</time>
      </trkpt>
      <trkpt lat="43.76308" lon="7.03975">
        <ele>966.3</ele>
        <time>2017-09-11T09:53:28Z</time>
      </trkpt>
      <trkpt lat="43.76302" lon="7.03985">
        <ele>966.3</ele>
        <time>2017-09-11T09:53:34Z</time>
      </trkpt>
      <trkpt lat="43.76299" lon="7.0399">
        <ele>966.3</ele>
        <time>2017-09-11T09:53:38Z</time>
      </trkpt>
      <trkpt lat="43.76294" lon="7.03993">
        <ele>966.3</ele>
        <time>2017-09-11T09:53:41Z</time>
      </trkpt>
      <trkpt lat="43.76284" lon="7.04005">
        <ele>966.4</ele>
        <time>2017-09-11T09:53:50Z</time>
      </trkpt>
      <trkpt lat="43.7627" lon="7.04012">
        <ele>966.5</ele>
        <time>2017-09-11T09:54:00Z</time>
      </trkpt>
      <trkpt lat="43.76261" lon="7.04018">
        <ele>966.6</ele>
        <time>2017-09-11T09:54:05Z</time>
      </trkpt>
      <trkpt lat="43.76243" lon="7.04027">
        <ele>966.9</ele>
        <time>2017-09-11T09:54:17Z</time>
      </trkpt>
      <trkpt lat="43.76225" lon="7.04034">
        <ele>968</ele>
        <time>2017-09-11T09:54:30Z</time>
      </trkpt>
      <trkpt lat="43.76217" lon="7.04043">
        <ele>968.4</ele>
        <time>2017-09-11T09:54:37Z</time>
      </trkpt>
      <trkpt lat="43.7621" lon="7.04052">
        <ele>968.7</ele>
        <time>2017-09-11T09:54:43Z</time>
      </trkpt>
      <trkpt lat="43.76203" lon="7.04062">
        <ele>968.9</ele>
        <time>2017-09-11T09:54:49Z</time>
      </trkpt>
      <trkpt lat="43.76196" lon="7.04072">
        <ele>969</ele>
        <time>2017-09-11T09:54:53Z</time>
      </trkpt>
      <trkpt lat="43.76187" lon="7.04075">
        <ele>969.2</ele>
        <time>2017-09-11T09:55:05Z</time>
      </trkpt>
      <trkpt lat="43.76174" lon="7.04092">
        <ele>969.4</ele>
        <time>2017-09-11T09:55:16Z</time>
      </trkpt>
      <trkpt lat="43.76165" lon="7.04099">
        <ele>969.4</ele>
        <time>2017-09-11T09:55:23Z</time>
      </trkpt>
      <trkpt lat="43.76154" lon="7.04109">
        <ele>969.4</ele>
        <time>2017-09-11T09:55:33Z</time>
      </trkpt>
      <trkpt lat="43.76144" lon="7.04116">
        <ele>969.5</ele>
        <time>2017-09-11T09:55:40Z</time>
      </trkpt>
      <trkpt lat="43.76139" lon="7.04121">
        <ele>969.6</ele>
        <time>2017-09-11T09:55:43Z</time>
      </trkpt>
      <trkpt lat="43.76125" lon="7.04133">
        <ele>969.6</ele>
        <time>2017-09-11T09:55:56Z</time>
      </trkpt>
      <trkpt lat="43.76112" lon="7.04143">
        <ele>969.7</ele>
        <time>2017-09-11T09:56:05Z</time>
      </trkpt>
      <trkpt lat="43.76096" lon="7.0415">
        <ele>969.6</ele>
        <time>2017-09-11T09:56:16Z</time>
      </trkpt>
      <trkpt lat="43.76087" lon="7.04155">
        <ele>969.5</ele>
        <time>2017-09-11T09:56:23Z</time>
      </trkpt>
      <trkpt lat="43.76079" lon="7.0416">
        <ele>969.4</ele>
        <time>2017-09-11T09:56:30Z</time>
      </trkpt>
      <trkpt lat="43.76066" lon="7.04172">
        <ele>969</ele>
        <time>2017-09-11T09:56:40Z</time>
      </trkpt>
      <trkpt lat="43.76056" lon="7.04186">
        <ele>967.9</ele>
        <time>2017-09-11T09:56:50Z</time>
      </trkpt>
      <trkpt lat="43.76048" lon="7.04194">
        <ele>967.8</ele>
        <time>2017-09-11T09:56:56Z</time>
      </trkpt>
      <trkpt lat="43.76048" lon="7.04201">
        <ele>967.9</ele>
        <time>2017-09-11T09:57:36Z</time>
      </trkpt>
      <trkpt lat="43.76052" lon="7.04204">
        <ele>968</ele>
        <time>2017-09-11T09:57:51Z</time>
      </trkpt>
      <trkpt lat="43.76051" lon="7.04204">
        <ele>968.3</ele>
        <time>2017-09-11T09:57:55Z</time>
      </trkpt>
      <trkpt lat="43.76051" lon="7.04204">
        <ele>967.1</ele>
        <time>2017-09-11T09:57:55Z</time>
      </trkpt>
      <trkpt lat="43.76051" lon="7.04204">
        <ele>967.1</ele>
        <time>2017-09-11T09:58:01Z</time>
      </trkpt>
    </trkseg>
  </trk>
</gpx>